M I D A S
Marine Information and Data Acquisition System
Tripno 653 of the Zeeleeuw from 2004-02-23 08:00:59 to 2004-02-23 13:38:13
Back to CruiseResearch ActivitiesStationsMapUnderway DataData graphs

EquipmentUnitsComment
TimeDGPSUTC
LatitudeDGPSDM.mWGS84
LongitudeDGPSDM.mWGS84
TemperatureSBE03/SBE38deg celciusITS90
ConductivitySBE21S/mITS90
SalinitySBE21 Practical Salinity Units
ChlorophylAChelsea fluorimeterg/lCalibrated in Aceton
Missing or incorrect values are displayed as -999
Sea surface data collected by the RV Zeeleeuw from 2004-02-23 08:00:59 to 2004-02-23 13:38:13
                                                                                    Next 1000 lines
Time Latitude Longitude Temperature Conductivity Salinity ChlorophylA
2004-02-23 08:01:09 51°13.594 2°56.108 11.489161 4.153254 31.493241 -0.882377
2004-02-23 08:01:14 51°13.594 2°56.107 11.489161 4.153254 31.493241 -0.882377
2004-02-23 08:01:19 51°13.594 2°56.107 11.485447 4.153464 31.495588 -0.882377
2004-02-23 08:01:23 51°13.594 2°56.107 11.460591 4.153464 31.495025 -0.848668
2004-02-23 08:01:29 51°13.594 2°56.106 11.459857 4.153464 31.495588 -0.882377
2004-02-23 08:01:34 51°13.594 2°56.106 11.462884 4.153675 31.497371 -0.882377
2004-02-23 08:01:39 51°13.593 2°56.106 11.465407 4.15357 31.49648 -0.882377
2004-02-23 08:01:43 51°13.593 2°56.106 11.465407 4.15357 31.49648 -0.882377
2004-02-23 08:01:49 51°13.593 2°56.105 11.465132 4.153675 31.497935 -0.916087
2004-02-23 08:01:54 51°13.593 2°56.106 11.464948 4.153675 31.497935 -0.916087
2004-02-23 08:01:59 51°13.593 2°56.106 11.465636 4.153675 31.497935 -0.848668
2004-02-23 08:02:04 51°13.593 2°56.106 11.466508 4.153675 31.497935 -0.882377
2004-02-23 08:02:09 51°13.593 2°56.106 11.468297 4.15357 31.497043 -0.848668
2004-02-23 08:02:14 51°13.592 2°56.106 11.468297 4.15357 31.497043 -0.848668
2004-02-23 08:02:19 51°13.592 2°56.106 11.46793 4.153675 31.498498 -0.848668
2004-02-23 08:02:24 51°13.592 2°56.106 11.464169 4.153675 31.498498 -0.882377
2004-02-23 08:02:29 51°13.592 2°56.106 11.465774 4.153675 31.499061 -0.882377
2004-02-23 08:02:33 51°13.592 2°56.106 11.428521 4.153675 31.498498 -0.882377
2004-02-23 08:02:39 51°13.593 2°56.104 11.432146 4.153675 31.499061 -0.882377
2004-02-23 08:02:43 51°13.593 2°56.103 11.432146 4.153675 31.499061 -0.882377
2004-02-23 08:02:49 51°13.594 2°56.099 11.415716 4.153675 31.499061 -0.882377
2004-02-23 08:02:54 51°13.595 2°56.096 11.437699 4.153675 31.498498 -0.882377
2004-02-23 08:02:59 51°13.596 2°56.091 11.451646 4.153675 31.499624 -0.882377
2004-02-23 08:03:05 51°13.597 2°56.086 11.449627 4.153675 31.499061 -0.848668
2004-02-23 08:03:10 51°13.598 2°56.081 11.44793 4.153675 31.499061 -0.882377
2004-02-23 08:03:15 51°13.599 2°56.075 11.44793 4.153675 31.499061 -0.882377
2004-02-23 08:03:19 51°13.6 2°56.07 11.457243 4.153675 31.499624 -0.882377
2004-02-23 08:03:25 51°13.602 2°56.063 11.458619 4.153675 31.500187 -0.882377
2004-02-23 08:03:29 51°13.603 2°56.058 11.464398 4.153675 31.500187 -0.882377
2004-02-23 08:03:35 51°13.605 2°56.049 11.471736 4.15357 31.500421 -0.882377
2004-02-23 08:03:39 51°13.607 2°56.043 11.471186 4.15357 31.500421 -0.848668
2004-02-23 08:03:45 51°13.609 2°56.035 11.471186 4.15357 31.500421 -0.848668
2004-02-23 08:03:50 51°13.611 2°56.027 11.47435 4.15357 31.500421 -0.848668
2004-02-23 08:03:55 51°13.614 2°56.019 11.47036 4.15357 31.500984 -0.882377
2004-02-23 08:03:59 51°13.616 2°56.012 11.466095 4.153675 31.50244 -0.882377
2004-02-23 08:04:05 51°13.619 2°56.001 11.478477 4.15357 31.501547 -0.882377
2004-02-23 08:04:09 51°13.622 2°55.995 11.469443 4.15357 31.502111 -0.848668
2004-02-23 08:04:15 51°13.625 2°55.984 11.469443 4.15357 31.502111 -0.848668
2004-02-23 08:04:19 51°13.628 2°55.976 11.479395 4.15357 31.502674 -0.848668
2004-02-23 08:04:25 51°13.632 2°55.965 11.507315 4.15357 31.502111 -0.882377
2004-02-23 08:04:30 51°13.636 2°55.956 11.495809 4.153464 31.501219 -0.882377
2004-02-23 08:04:35 51°13.639 2°55.947 11.489711 4.15357 31.502111 -0.882377
2004-02-23 08:04:39 51°13.642 2°55.939 11.489711 4.15357 31.502111 -0.882377
2004-02-23 08:04:45 51°13.647 2°55.928 11.495121 4.153464 31.501219 -0.882377
2004-02-23 08:04:50 51°13.65 2°55.918 11.490903 4.153464 31.501219 -0.814958
2004-02-23 08:04:55 51°13.654 2°55.909 11.488565 4.153465 31.501782 -0.882377
2004-02-23 08:04:59 51°13.657 2°55.901 11.486181 4.153359 31.50089 -0.848668
2004-02-23 08:05:05 51°13.662 2°55.889 11.500393 4.153465 31.501782 -0.848668
2004-02-23 08:05:09 51°13.665 2°55.882 11.500393 4.153465 31.501782 -0.848668
2004-02-23 08:05:15 51°13.669 2°55.87 11.487969 4.153359 31.501453 -0.882377
2004-02-23 08:05:19 51°13.672 2°55.862 11.496634 4.153465 31.501782 -0.882377
2004-02-23 08:05:25 51°13.677 2°55.85 11.484805 4.153465 31.501782 -0.882377
2004-02-23 08:05:30 51°13.68 2°55.841 11.494296 4.153465 31.502345 -0.882377
2004-02-23 08:05:35 51°13.684 2°55.83 11.486731 4.153465 31.501782 -0.882377
2004-02-23 08:05:40 51°13.687 2°55.82 11.49127 4.153465 31.501782 -0.882377
2004-02-23 08:05:45 51°13.691 2°55.809 11.49127 4.153465 31.501782 -0.882377
2004-02-23 08:05:50 51°13.694 2°55.799 11.494388 4.153359 31.501453 -0.848668
2004-02-23 08:05:55 51°13.697 2°55.788 11.486456 4.153254 31.501124 -0.848668
2004-02-23 08:05:59 51°13.699 2°55.779 11.48077 4.153359 31.502016 -0.848668
2004-02-23 08:06:05 51°13.701 2°55.765 11.479165 4.153359 31.502016 -0.848668
2004-02-23 08:06:10 51°13.703 2°55.755 11.525739 4.153254 31.501124 -0.882377
2004-02-23 08:06:15 51°13.705 2°55.745 11.525739 4.153254 31.501124 -0.882377
2004-02-23 08:06:19 51°13.705 2°55.739 11.50869 4.153359 31.502016 -0.882377
2004-02-23 08:06:25 51°13.706 2°55.733 11.598009 4.153359 31.501453 -0.882377
2004-02-23 08:06:29 51°13.706 2°55.732 11.646008 4.153254 31.500561 -0.882377
2004-02-23 08:06:34 51°13.706 2°55.732 11.57988 4.153359 31.50089 -0.882377
2004-02-23 08:06:39 51°13.707 2°55.735 11.627526 4.153359 31.50089 -0.882377
2004-02-23 08:06:43 51°13.707 2°55.739 11.627526 4.153359 31.50089 -0.882377
2004-02-23 08:06:49 51°13.709 2°55.744 11.696166 4.153254 31.502251 -0.882377
2004-02-23 08:06:54 51°13.71 2°55.748 11.497413 4.153254 31.502814 -0.882377
2004-02-23 08:06:59 51°13.711 2°55.75 11.450407 4.153254 31.503377 -0.882377
2004-02-23 08:07:03 51°13.711 2°55.752 11.510753 4.153254 31.503941 -0.882377
2004-02-23 08:07:09 51°13.711 2°55.752 11.419939 4.153254 31.503941 -0.848668
2004-02-23 08:07:14 51°13.71 2°55.751 11.419939 4.153254 31.503941 -0.848668
2004-02-23 08:07:19 51°13.709 2°55.748 11.489069 4.153254 31.503941 -0.882377
2004-02-23 08:07:23 51°13.707 2°55.746 11.480449 4.153254 31.504504 -0.848668
2004-02-23 08:07:29 51°13.705 2°55.742 11.555792 4.153254 31.503941 -0.848668
2004-02-23 08:07:35 51°13.703 2°55.739 11.538156 4.153254 31.503377 -0.916087
2004-02-23 08:07:39 51°13.703 2°55.737 11.492371 4.153254 31.503377 -0.882377
2004-02-23 08:07:45 51°13.703 2°55.738 11.492371 4.153254 31.503377 -0.882377
2004-02-23 08:07:50 51°13.704 2°55.739 11.603776 4.153254 31.502814 -0.882377
2004-02-23 08:07:55 51°13.707 2°55.741 11.594392 4.153254 31.502814 -0.882377
2004-02-23 08:07:59 51°13.709 2°55.742 11.68515 4.153359 31.504833 -0.882377
2004-02-23 08:08:05 51°13.713 2°55.745 11.523906 4.153254 31.504504 -0.848668
2004-02-23 08:08:09 51°13.716 2°55.744 11.642623 4.153254 31.505067 -0.882377
2004-02-23 08:08:14 51°13.721 2°55.744 11.642623 4.153254 31.505067 -0.882377
2004-02-23 08:08:19 51°13.727 2°55.742 11.6942 4.153254 31.505067 -0.882377
2004-02-23 08:08:23 51°13.732 2°55.739 11.681675 4.153148 31.505302 -0.882377
2004-02-23 08:08:29 51°13.739 2°55.732 11.709282 4.153148 31.506429 -0.882377
2004-02-23 08:08:34 51°13.745 2°55.726 11.52473 4.153254 31.507321 -0.882377
2004-02-23 08:08:39 51°13.749 2°55.72 11.52473 4.153254 31.507321 -0.882377
2004-02-23 08:08:43 51°13.754 2°55.716 11.527388 4.153254 31.506194 -0.882377
2004-02-23 08:08:49 51°13.76 2°55.707 11.520148 4.153254 31.506194 -0.848668
2004-02-23 08:08:54 51°13.765 2°55.7 11.489986 4.153148 31.504175 -0.848668
2004-02-23 08:08:59 51°13.771 2°55.693 11.507498 4.153148 31.503048 -0.848668
2004-02-23 08:09:04 51°13.778 2°55.685 11.479119 4.153254 31.503377 -0.916087
2004-02-23 08:09:09 51°13.785 2°55.677 11.508461 4.153148 31.501922 -0.882377
2004-02-23 08:09:13 51°13.791 2°55.67 11.508461 4.153148 31.501922 -0.882377
2004-02-23 08:09:19 51°13.8 2°55.659 11.521523 4.153148 31.501358 -0.882377
2004-02-23 08:09:24 51°13.808 2°55.65 11.45316 4.153254 31.502251 -0.882377
2004-02-23 08:09:29 51°13.816 2°55.642 11.485493 4.153254 31.502251 -0.882377
2004-02-23 08:09:34 51°13.825 2°55.634 11.455499 4.153254 31.501687 -0.882377
2004-02-23 08:09:39 51°13.833 2°55.626 11.464031 4.153254 31.501687 -0.882377
2004-02-23 08:09:44 51°13.842 2°55.618 11.464031 4.153254 31.501687 -0.882377
2004-02-23 08:09:49 51°13.852 2°55.61 11.467838 4.153254 31.502251 -0.882377
2004-02-23 08:09:53 51°13.859 2°55.604 11.489757 4.153254 31.502251 -0.848668
2004-02-23 08:09:59 51°13.871 2°55.595 11.510753 4.153254 31.502814 -0.848668
2004-02-23 08:10:04 51°13.88 2°55.588 11.491499 4.153254 31.502814 -0.882377
2004-02-23 08:10:09 51°13.89 2°55.581 11.458389 4.153359 31.504269 -0.848668
2004-02-23 08:10:14 51°13.9 2°55.574 11.458389 4.153359 31.504269 -0.848668
2004-02-23 08:10:19 51°13.91 2°55.567 11.455958 4.153254 31.504504 -0.882377
2004-02-23 08:10:23 51°13.919 2°55.561 11.487235 4.153254 31.503941 -0.882377
2004-02-23 08:10:29 51°13.931 2°55.552 11.492233 4.153254 31.505067 -0.882377
2004-02-23 08:10:34 51°13.941 2°55.545 11.468297 4.153254 31.504504 -0.882377
2004-02-23 08:10:39 51°13.951 2°55.538 11.480082 4.153148 31.504175 -0.848668
2004-02-23 08:10:44 51°13.962 2°55.531 11.480082 4.153148 31.504175 -0.848668
2004-02-23 08:10:49 51°13.972 2°55.523 11.500026 4.153254 31.505631 -0.882377
2004-02-23 08:10:54 51°13.983 2°55.516 11.479395 4.153148 31.504738 -0.882377
2004-02-23 08:10:59 51°13.993 2°55.509 11.545073 4.153254 31.505631 -0.882377
2004-02-23 08:11:03 51°14.002 2°55.503 11.448251 4.153043 31.503283 -0.882377
2004-02-23 08:11:09 51°14.015 2°55.495 11.475497 4.153254 31.505067 -0.916087
2004-02-23 08:11:13 51°14.023 2°55.489 11.475497 4.153254 31.505067 -0.916087
2004-02-23 08:11:19 51°14.036 2°55.48 11.550341 4.153148 31.504738 -0.882377
2004-02-23 08:11:24 51°14.046 2°55.472 11.467288 4.153148 31.504738 -0.882377
2004-02-23 08:11:29 51°14.057 2°55.465 11.496176 4.153148 31.504175 -0.882377
2004-02-23 08:11:34 51°14.067 2°55.457 11.455683 4.153148 31.504738 -0.882377
2004-02-23 08:11:39 51°14.078 2°55.449 11.484393 4.153043 31.503846 -0.916087
2004-02-23 08:11:44 51°14.088 2°55.441 11.484393 4.153043 31.503846 -0.916087
2004-02-23 08:11:49 51°14.099 2°55.432 11.543607 4.153043 31.50441 -0.848668
2004-02-23 08:11:53 51°14.108 2°55.426 11.454949 4.152937 31.502391 -0.882377
2004-02-23 08:11:59 51°14.122 2°55.415 11.48884 4.152937 31.501827 -0.882377
2004-02-23 08:12:03 51°14.132 2°55.407 11.487465 4.153043 31.503283 -0.882377
2004-02-23 08:12:09 51°14.146 2°55.395 11.46527 4.153148 31.504175 -0.882377
2004-02-23 08:12:14 51°14.158 2°55.385 11.46527 4.153148 31.504175 -0.882377
2004-02-23 08:12:19 51°14.17 2°55.374 11.545211 4.153148 31.504175 -0.916087
2004-02-23 08:12:23 51°14.18 2°55.366 11.472332 4.153043 31.503846 -0.848668
2004-02-23 08:12:30 51°14.196 2°55.349 11.505069 4.153043 31.503283 -0.848668
2004-02-23 08:12:35 51°14.208 2°55.336 11.588762 4.152937 31.502391 -0.882377
2004-02-23 08:12:39 51°14.218 2°55.325 11.527022 4.153043 31.503846 -0.882377
2004-02-23 08:12:45 51°14.232 2°55.308 11.527022 4.153043 31.503846 -0.882377
2004-02-23 08:12:49 51°14.241 2°55.295 11.467563 4.153148 31.504738 -0.882377
2004-02-23 08:12:54 51°14.252 2°55.279 11.606522 4.152832 31.501498 -0.916087
2004-02-23 08:12:59 51°14.264 2°55.263 11.404515 4.153148 31.504175 -0.882377
2004-02-23 08:13:04 51°14.275 2°55.245 11.636722 4.152516 31.499948 -0.882377
2004-02-23 08:13:09 51°14.285 2°55.226 11.329459 4.153254 31.506194 -0.882377
2004-02-23 08:13:14 51°14.295 2°55.206 11.329459 4.153254 31.506194 -0.882377
2004-02-23 08:13:19 51°14.305 2°55.185 11.31498 4.153359 31.506523 -0.848668
2004-02-23 08:13:25 51°14.316 2°55.16 11.455866 4.152937 31.503517 -0.882377
2004-02-23 08:13:30 51°14.326 2°55.138 11.402174 4.152727 31.501733 -0.882377
2004-02-23 08:13:34 51°14.333 2°55.12 11.291301 4.153254 31.505631 -0.882377
2004-02-23 08:13:39 51°14.342 2°55.098 11.42875 4.152516 31.498822 -0.848668
2004-02-23 08:13:44 51°14.351 2°55.077 11.42875 4.152516 31.498822 -0.848668
2004-02-23 08:13:49 51°14.361 2°55.056 11.302107 4.152727 31.501733 -0.882377
2004-02-23 08:13:54 51°14.37 2°55.034 11.274882 4.153148 31.504175 -0.848668
2004-02-23 08:13:59 51°14.378 2°55.011 11.378894 4.152727 31.50117 -0.848668
2004-02-23 08:14:05 51°14.386 2°54.983 11.353951 4.15241 31.500746 -0.882377
2004-02-23 08:14:09 51°14.39 2°54.964 11.329505 4.152937 31.504644 -0.848668
2004-02-23 08:14:14 51°14.394 2°54.939 11.329505 4.152937 31.504644 -0.848668
2004-02-23 08:14:19 51°14.397 2°54.913 11.304176 4.153254 31.506194 -0.882377
2004-02-23 08:14:23 51°14.4 2°54.894 11.350552 4.152094 31.499196 -0.882377
2004-02-23 08:14:29 51°14.402 2°54.865 11.252431 4.152621 31.502531 -0.882377
2004-02-23 08:14:34 51°14.404 2°54.841 11.285461 4.153043 31.504973 -0.882377
2004-02-23 08:14:39 51°14.405 2°54.818 11.296452 4.152727 31.501733 -0.882377
2004-02-23 08:14:44 51°14.406 2°54.796 11.296452 4.152727 31.501733 -0.882377
2004-02-23 08:14:49 51°14.405 2°54.774 11.278746 4.153254 31.506194 -0.848668
2004-02-23 08:14:53 51°14.405 2°54.757 11.254179 4.152937 31.504644 -0.848668
2004-02-23 08:14:59 51°14.404 2°54.732 11.313187 4.152516 31.500512 -0.848668
2004-02-23 08:15:03 51°14.402 2°54.716 11.238027 4.152937 31.505208 -0.848668
2004-02-23 08:15:09 51°14.4 2°54.691 11.307854 4.153043 31.5061 -0.916087
2004-02-23 08:15:13 51°14.399 2°54.675 11.307854 4.153043 31.5061 -0.916087
2004-02-23 08:15:19 51°14.396 2°54.65 11.356157 4.152305 31.500417 -0.882377
2004-02-23 08:15:25 51°14.392 2°54.627 11.302291 4.152832 31.505442 -0.916087
2004-02-23 08:15:29 51°14.39 2°54.611 11.327667 4.152305 31.499291 -0.882377
2004-02-23 08:15:34 51°14.386 2°54.592 11.306337 4.152199 31.499525 -0.882377
2004-02-23 08:15:39 51°14.383 2°54.572 11.291991 4.15241 31.50131 -0.848668
2004-02-23 08:15:43 51°14.38 2°54.557 11.291991 4.15241 31.50131 -0.848668
2004-02-23 08:15:49 51°14.376 2°54.534 11.24042 4.152832 31.504315 -0.882377
2004-02-23 08:15:53 51°14.373 2°54.519 11.305923 4.152727 31.503423 -0.882377
2004-02-23 08:15:59 51°14.368 2°54.496 11.302613 4.152516 31.501638 -0.848668
2004-02-23 08:16:03 51°14.365 2°54.481 11.342281 4.152727 31.503986 -0.882377
2004-02-23 08:16:09 51°14.36 2°54.457 11.250728 4.152727 31.503986 -0.848668
2004-02-23 08:16:14 51°14.354 2°54.437 11.250728 4.152727 31.503986 -0.848668
2004-02-23 08:16:19 51°14.349 2°54.415 11.235312 4.152937 31.505208 -0.848668
2004-02-23 08:16:24 51°14.344 2°54.392 11.252109 4.152516 31.501638 -0.882377
2004-02-23 08:16:29 51°14.337 2°54.368 11.340167 4.152199 31.500088 -0.882377
2004-02-23 08:16:33 51°14.333 2°54.347 11.271478 4.152516 31.502765 -0.882377
2004-02-23 08:16:39 51°14.324 2°54.317 11.255192 4.152727 31.503986 -0.882377
2004-02-23 08:16:43 51°14.318 2°54.296 11.255192 4.152727 31.503986 -0.882377
2004-02-23 08:16:49 51°14.308 2°54.264 11.260115 4.15241 31.502436 -0.882377
2004-02-23 08:16:54 51°14.299 2°54.238 11.287668 4.152621 31.503658 -0.882377
2004-02-23 08:16:59 51°14.29 2°54.212 11.282885 4.15241 31.501873 -0.882377
2004-02-23 08:17:04 51°14.281 2°54.185 11.277182 4.152516 31.501075 -0.848668
2004-02-23 08:17:09 51°14.269 2°54.161 11.288128 4.151988 31.49774 -0.882377
2004-02-23 08:17:14 51°14.261 2°54.132 11.288128 4.151988 31.49774 -0.882377
2004-02-23 08:17:19 51°14.249 2°54.107 11.32399 4.152305 31.500981 -0.916087
2004-02-23 08:17:24 51°14.24 2°54.081 11.284081 4.152727 31.50286 -0.848668
2004-02-23 08:17:29 51°14.229 2°54.053 11.27502 4.151883 31.497975 -0.882377
2004-02-23 08:17:33 51°14.222 2°54.031 11.304314 4.152094 31.502577 -0.882377
2004-02-23 08:17:39 51°14.21 2°53.999 11.280861 4.152094 31.504267 -0.882377
2004-02-23 08:17:44 51°14.202 2°53.971 11.280861 4.152094 31.504267 -0.882377
2004-02-23 08:17:49 51°14.191 2°53.944 11.304406 4.152094 31.504831 -0.882377
2004-02-23 08:17:54 51°14.184 2°53.915 11.293233 4.151989 31.501684 -0.882377
2004-02-23 08:17:59 51°14.174 2°53.887 11.293647 4.152094 31.502013 -0.882377
2004-02-23 08:18:03 51°14.166 2°53.864 11.307257 4.151778 31.494829 -0.882377
2004-02-23 08:18:09 51°14.156 2°53.83 11.303671 4.15241 31.49624 -0.848668
2004-02-23 08:18:14 51°14.147 2°53.803 11.303671 4.15241 31.49624 -0.848668
2004-02-23 08:18:19 51°14.136 2°53.775 11.300268 4.151988 31.489856 -0.848668
2004-02-23 08:18:23 51°14.13 2°53.751 11.300452 4.151883 31.488964 -0.882377
2004-02-23 08:18:29 51°14.117 2°53.719 11.307854 4.151778 31.49314 -0.882377
2004-02-23 08:18:34 51°14.108 2°53.69 11.306935 4.151988 31.49605 -0.848668
2004-02-23 08:18:39 51°14.097 2°53.663 11.307211 4.151778 31.497646 -0.882377
2004-02-23 08:18:43 51°14.09 2°53.641 11.307211 4.151778 31.497646 -0.882377
2004-02-23 08:18:49 51°14.076 2°53.608 11.308498 4.152094 31.505394 -0.882377
2004-02-23 08:18:53 51°14.067 2°53.586 11.314107 4.152305 31.50887 -0.848668
2004-02-23 08:18:59 51°14.056 2°53.552 11.309923 4.151883 31.503046 -0.848668
2004-02-23 08:19:03 51°14.045 2°53.532 11.316865 4.151672 31.503515 -0.882377
2004-02-23 08:19:09 51°14.035 2°53.497 11.3176 4.152516 31.507837 -0.882377
2004-02-23 08:19:14 51°14.024 2°53.471 11.3176 4.152516 31.507837 -0.882377
2004-02-23 08:19:19 51°14.011 2°53.443 11.320864 4.151989 31.503938 -0.882377
2004-02-23 08:19:24 51°14.005 2°53.412 11.336261 4.152199 31.503469 -0.848668
2004-02-23 08:19:29 51°13.995 2°53.385 11.323162 4.151567 31.499805 -0.882377
2004-02-23 08:19:33 51°13.989 2°53.361 11.319899 4.152516 31.506146 -0.882377
2004-02-23 08:19:39 51°13.979 2°53.325 11.319899 4.152516 31.506146 -0.882377
2004-02-23 08:19:43 51°13.971 2°53.301 11.32877 4.151672 31.498444 -0.848668
2004-02-23 08:19:49 51°13.962 2°53.265 11.334055 4.152199 31.500652 -0.848668
2004-02-23 08:19:54 51°13.951 2°53.237 11.316221 4.151883 31.497975 -0.882377
2004-02-23 08:19:59 51°13.946 2°53.205 11.34513 4.152305 31.498164 -0.882377
2004-02-23 08:20:04 51°13.933 2°53.178 11.335342 4.15104 31.494216 -0.848668
2004-02-23 08:20:09 51°13.927 2°53.146 11.335755 4.152094 31.502013 -0.882377
2004-02-23 08:20:13 51°13.918 2°53.124 11.335755 4.152094 31.502013 -0.882377
2004-02-23 08:20:19 51°13.909 2°53.088 11.344716 4.150934 31.495577 -0.882377
2004-02-23 08:20:24 51°13.897 2°53.059 11.311946 4.151356 31.501401 -0.848668
2004-02-23 08:20:29 51°13.888 2°53.03 11.340443 4.151989 31.506193 -0.882377
2004-02-23 08:20:34 51°13.878 2°53 11.345589 4.151883 31.504173 -0.882377
2004-02-23 08:20:39 51°13.866 2°52.97 11.36144 4.151567 31.495298 -0.848668
2004-02-23 08:20:43 51°13.86 2°52.946 11.36144 4.151567 31.495298 -0.848668
2004-02-23 08:20:49 51°13.846 2°52.914 11.31144 4.151356 31.49126 -0.882377
2004-02-23 08:20:53 51°13.839 2°52.889 11.368744 4.151672 31.488869 -0.882377
2004-02-23 08:20:59 51°13.826 2°52.855 11.350046 4.151356 31.487882 -0.882377
2004-02-23 08:21:03 51°13.819 2°52.83 11.349035 4.151672 31.490558 -0.848668
2004-02-23 08:21:09 51°13.806 2°52.795 11.378802 4.151672 31.491121 -0.916087
2004-02-23 08:21:13 51°13.798 2°52.772 11.378802 4.151672 31.491121 -0.916087
2004-02-23 08:21:19 51°13.786 2°52.737 11.350276 4.150934 31.491071 -0.882377
2004-02-23 08:21:23 51°13.777 2°52.714 11.348025 4.151989 31.501121 -0.882377
2004-02-23 08:21:29 51°13.765 2°52.677 11.391339 4.151145 31.496799 -0.848668
2004-02-23 08:21:34 51°13.753 2°52.649 11.340535 4.151251 31.501636 -0.882377
2004-02-23 08:21:39 51°13.744 2°52.619 11.349265 4.151778 31.504408 -0.882377
2004-02-23 08:21:43 51°13.735 2°52.598 11.349265 4.151778 31.504408 -0.882377
2004-02-23 08:21:49 51°13.723 2°52.561 11.384818 4.151461 31.502294 -0.882377
2004-02-23 08:21:54 51°13.713 2°52.53 11.383991 4.15125 31.499382 -0.882377
2004-02-23 08:21:59 51°13.704 2°52.501 11.370581 4.151567 31.499242 -0.882377
2004-02-23 08:22:03 51°13.696 2°52.48 11.378021 4.15125 31.497128 -0.848668
2004-02-23 08:22:09 51°13.682 2°52.445 11.373199 4.151356 31.499147 -0.882377
2004-02-23 08:22:14 51°13.674 2°52.412 11.373199 4.151356 31.499147 -0.882377
2004-02-23 08:22:19 51°13.664 2°52.382 11.388767 4.151989 31.502811 -0.916087
2004-02-23 08:22:24 51°13.656 2°52.352 11.372051 4.150934 31.495577 -0.848668
2004-02-23 08:22:29 51°13.646 2°52.323 11.351333 4.151567 31.501496 -0.882377
2004-02-23 08:22:33 51°13.639 2°52.299 11.368009 4.151567 31.502623 -0.882377
2004-02-23 08:22:39 51°13.626 2°52.263 11.390191 4.151251 31.499945 -0.848668
2004-02-23 08:22:44 51°13.617 2°52.232 11.390191 4.151251 31.499945 -0.848668
2004-02-23 08:22:49 51°13.604 2°52.204 11.386884 4.151778 31.503844 -0.882377
2004-02-23 08:22:54 51°13.596 2°52.174 11.390558 4.151778 31.503281 -0.848668
2004-02-23 08:22:59 51°13.584 2°52.146 11.365482 4.151145 31.500743 -0.848668
2004-02-23 08:23:04 51°13.574 2°52.116 11.394002 4.151883 31.506428 -0.848668
2004-02-23 08:23:09 51°13.564 2°52.086 11.394002 4.151883 31.506428 -0.848668
2004-02-23 08:23:14 51°13.553 2°52.058 11.386471 4.151461 31.502294 -0.882377
2004-02-23 08:23:19 51°13.541 2°52.03 11.388538 4.151883 31.5053 -0.848668
2004-02-23 08:23:23 51°13.534 2°52.005 11.429347 4.151567 31.50375 -0.882377
2004-02-23 08:23:29 51°13.521 2°51.969 11.365207 4.151672 31.504643 -0.882377
2004-02-23 08:23:34 51°13.513 2°51.938 11.390788 4.151567 31.502623 -0.848668
2004-02-23 08:23:39 51°13.502 2°51.909 11.390788 4.151567 31.502623 -0.848668
2004-02-23 08:23:43 51°13.495 2°51.885 11.417414 4.151672 31.502952 -0.848668
2004-02-23 08:23:49 51°13.482 2°51.852 11.379904 4.151778 31.503844 -0.848668
2004-02-23 08:23:54 51°13.473 2°51.82 11.436505 4.151672 31.503515 -0.882377
2004-02-23 08:23:59 51°13.462 2°51.791 11.36562 4.151672 31.504643 -0.848668
2004-02-23 08:24:03 51°13.454 2°51.768 11.372188 4.151461 31.502294 -0.882377
2004-02-23 08:24:09 51°13.442 2°51.733 11.392441 4.151251 31.501072 -0.882377
2004-02-23 08:24:14 51°13.432 2°51.702 11.392441 4.151251 31.501072 -0.882377
2004-02-23 08:24:19 51°13.421 2°51.673 11.371683 4.151461 31.502857 -0.882377
2004-02-23 08:24:24 51°13.413 2°51.643 11.398272 4.151883 31.5053 -0.882377
2004-02-23 08:24:29 51°13.402 2°51.614 11.426961 4.151356 31.501965 -0.882377
2004-02-23 08:24:33 51°13.394 2°51.59 11.412549 4.151672 31.505206 -0.916087
2004-02-23 08:24:39 51°13.382 2°51.554 11.427006 4.151672 31.504643 -0.848668
2004-02-23 08:24:43 51°13.373 2°51.531 11.427006 4.151672 31.504643 -0.848668
2004-02-23 08:24:49 51°13.361 2°51.495 11.409978 4.151461 31.502857 -0.848668
2004-02-23 08:24:53 51°13.352 2°51.473 11.38918 4.151461 31.503985 -0.882377
2004-02-23 08:24:59 51°13.34 2°51.439 11.419434 4.151778 31.506663 -0.882377
2004-02-23 08:25:03 51°13.33 2°51.417 11.383624 4.15104 31.502669 -0.882377
2004-02-23 08:25:09 51°13.316 2°51.38 11.4103 4.151461 31.504548 -0.916087
2004-02-23 08:25:14 51°13.305 2°51.35 11.4103 4.151461 31.504548 -0.916087
2004-02-23 08:25:19 51°13.295 2°51.321 11.417873 4.151567 31.504877 -0.848668
2004-02-23 08:25:24 51°13.285 2°51.291 11.436827 4.151461 31.505112 -0.882377
2004-02-23 08:25:29 51°13.274 2°51.263 11.373337 4.151356 31.50422 -0.882377
2004-02-23 08:25:33 51°13.266 2°51.238 11.454674 4.151461 31.503985 -0.848668
2004-02-23 08:25:39 51°13.254 2°51.202 11.420673 4.151356 31.503656 -0.916087
2004-02-23 08:25:44 51°13.245 2°51.173 11.420673 4.151356 31.503656 -0.916087
2004-02-23 08:25:49 51°13.233 2°51.144 11.37104 4.151251 31.506146 -0.848668
2004-02-23 08:25:53 51°13.225 2°51.119 11.440681 4.151778 31.509481 -0.848668
2004-02-23 08:25:59 51°13.213 2°51.084 11.415395 4.151251 31.504454 -0.882377
2004-02-23 08:26:03 51°13.205 2°51.062 11.422417 4.151356 31.506475 -0.882377
2004-02-23 08:26:09 51°13.193 2°51.025 11.441186 4.151778 31.50779 -0.848668
2004-02-23 08:26:13 51°13.184 2°51.002 11.441186 4.151778 31.50779 -0.848668
2004-02-23 08:26:19 51°13.172 2°50.967 11.411539 4.150934 31.50234 -0.848668
2004-02-23 08:26:24 51°13.162 2°50.936 11.446737 4.151461 31.505676 -0.848668
2004-02-23 08:26:29 51°13.152 2°50.907 11.442883 4.151461 31.505112 -0.848668
2004-02-23 08:26:33 51°13.143 2°50.883 11.466279 4.151356 31.50422 -0.882377
2004-02-23 08:26:39 51°13.131 2°50.847 11.42003 4.150934 31.500649 -0.882377
2004-02-23 08:26:44 51°13.123 2°50.817 11.42003 4.150934 31.500649 -0.882377
2004-02-23 08:26:49 51°13.111 2°50.789 11.407683 4.151461 31.504548 -0.848668
2004-02-23 08:26:53 51°13.103 2°50.764 11.47325 4.151145 31.501871 -0.882377
2004-02-23 08:26:59 51°13.091 2°50.728 11.409611 4.151251 31.504454 -0.848668
2004-02-23 08:27:04 51°13.081 2°50.699 11.464123 4.151145 31.504125 -0.916087
2004-02-23 08:27:09 51°13.072 2°50.669 11.428704 4.151461 31.50624 -0.882377
2004-02-23 08:27:14 51°13.061 2°50.64 11.428704 4.151461 31.50624 -0.882377
2004-02-23 08:27:19 51°13.051 2°50.61 11.43857 4.15104 31.502669 -0.882377
2004-02-23 08:27:23 51°13.043 2°50.586 11.456738 4.151251 31.505582 -0.848668
2004-02-23 08:27:29 51°13.03 2°50.551 11.42003 4.151251 31.505018 -0.882377
2004-02-23 08:27:34 51°13.02 2°50.521 11.474992 4.151251 31.504454 -0.882377
2004-02-23 08:27:39 51°13.01 2°50.493 11.442103 4.15104 31.503233 -0.882377
2004-02-23 08:27:43 51°13.002 2°50.469 11.442103 4.15104 31.503233 -0.882377
2004-02-23 08:27:49 51°12.988 2°50.435 11.423656 4.15104 31.504924 -0.916087
2004-02-23 08:27:54 51°12.978 2°50.404 11.45183 4.151356 31.505347 -0.848668
2004-02-23 08:27:59 51°12.969 2°50.374 11.482329 4.151145 31.503562 -0.882377
2004-02-23 08:28:03 51°12.96 2°50.352 11.44926 4.151145 31.504689 -0.848668
2004-02-23 08:28:09 51°12.948 2°50.316 11.481183 4.15104 31.503233 -0.848668
2004-02-23 08:28:13 51°12.94 2°50.292 11.481183 4.15104 31.503233 -0.848668
2004-02-23 08:28:19 51°12.928 2°50.257 11.430448 4.150829 31.503702 -0.848668
2004-02-23 08:28:23 51°12.917 2°50.235 11.43288 4.151462 31.509623 -0.882377
2004-02-23 08:28:29 51°12.905 2°50.197 11.461004 4.151356 31.506475 -0.882377
2004-02-23 08:28:33 51°12.897 2°50.173 11.495305 4.15104 31.50436 -0.882377
2004-02-23 08:28:39 51°12.885 2°50.138 11.456233 4.15104 31.504924 -0.848668
2004-02-23 08:28:44 51°12.874 2°50.11 11.456233 4.15104 31.504924 -0.848668
2004-02-23 08:28:49 51°12.864 2°50.08 11.494296 4.151356 31.508166 -0.882377
2004-02-23 08:28:53 51°12.856 2°50.055 11.45027 4.150934 31.504595 -0.882377
2004-02-23 08:28:59 51°12.843 2°50.019 11.439213 4.15104 31.505488 -0.882377
2004-02-23 08:29:04 51°12.833 2°49.988 11.453297 4.150934 31.504031 -0.814958
2004-02-23 08:29:09 51°12.824 2°49.957 11.439075 4.150934 31.504031 -0.882377
2004-02-23 08:29:14 51°12.814 2°49.929 11.439075 4.150934 31.504031 -0.882377
2004-02-23 08:29:19 51°12.804 2°49.899 11.505206 4.151145 31.506944 -0.848668
2004-02-23 08:29:23 51°12.796 2°49.875 11.475359 4.15104 31.504924 -0.848668
2004-02-23 08:29:29 51°12.783 2°49.841 11.47756 4.150723 31.503374 -0.848668
2004-02-23 08:29:34 51°12.771 2°49.812 11.483476 4.150513 31.502716 -0.848668
2004-02-23 08:29:39 51°12.761 2°49.781 11.462013 4.150934 31.505159 -0.848668
2004-02-23 08:29:45 51°12.748 2°49.746 11.462013 4.150934 31.505159 -0.848668
2004-02-23 08:29:49 51°12.74 2°49.722 11.481687 4.150934 31.505159 -0.882377
2004-02-23 08:29:53 51°12.731 2°49.698 11.462884 4.150829 31.503702 -0.848668
2004-02-23 08:29:59 51°12.72 2°49.662 11.463802 4.150934 31.504031 -0.882377
2004-02-23 08:30:04 51°12.708 2°49.634 11.468342 4.150513 31.502716 -0.882377
2004-02-23 08:30:09 51°12.699 2°49.603 11.508323 4.151145 31.506944 -0.882377
2004-02-23 08:30:14 51°12.689 2°49.572 11.508323 4.151145 31.506944 -0.882377
2004-02-23 08:30:19 51°12.68 2°49.542 11.503098 4.150723 31.50281 -0.882377
2004-02-23 08:30:23 51°12.67 2°49.52 11.473708 4.150618 31.504172 -0.848668
2004-02-23 08:30:29 51°12.659 2°49.483 11.486823 4.15104 31.506616 -0.882377
2004-02-23 08:30:34 51°12.648 2°49.453 11.484668 4.150618 31.503608 -0.848668
2004-02-23 08:30:39 51°12.638 2°49.423 11.503785 4.150723 31.505065 -0.916087
2004-02-23 08:30:43 51°12.629 2°49.399 11.503785 4.150723 31.505065 -0.916087
2004-02-23 08:30:49 51°12.617 2°49.363 11.517077 4.150829 31.504266 -0.848668
2004-02-23 08:30:54 51°12.606 2°49.333 11.496267 4.150618 31.504172 -0.882377
2004-02-23 08:30:59 51°12.596 2°49.303 11.459398 4.150302 31.50093 -0.882377
2004-02-23 08:31:03 51°12.587 2°49.28 11.524593 4.150407 31.501823 -0.882377
2004-02-23 08:31:09 51°12.574 2°49.244 11.443067 4.150513 31.505535 -0.848668
2004-02-23 08:31:13 51°12.566 2°49.22 11.443067 4.150513 31.505535 -0.848668
2004-02-23 08:31:19 51°12.554 2°49.184 11.508323 4.150829 31.505958 -0.882377
2004-02-23 08:31:23 51°12.545 2°49.161 11.503327 4.150513 31.506099 -0.916087
2004-02-23 08:31:29 51°12.532 2°49.125 11.475497 4.150829 31.509341 -0.882377
2004-02-23 08:31:33 51°12.524 2°49.1 11.509744 4.150723 31.506193 -0.882377
2004-02-23 08:31:39 51°12.513 2°49.063 11.458848 4.150723 31.506193 -0.882377
2004-02-23 08:31:43 51°12.505 2°49.039 11.458848 4.150723 31.506193 -0.882377
2004-02-23 08:31:49 51°12.493 2°49.003 11.494525 4.150513 31.503843 -0.882377
2004-02-23 08:31:53 51°12.485 2°48.979 11.496176 4.150723 31.505629 -0.882377
2004-02-23 08:31:59 51°12.473 2°48.942 11.507544 4.150513 31.503843 -0.848668
2004-02-23 08:32:03 51°12.465 2°48.918 11.478065 4.150513 31.504407 -0.882377
2004-02-23 08:32:09 51°12.452 2°48.881 11.533162 4.150302 31.502622 -0.916087
2004-02-23 08:32:13 51°12.445 2°48.856 11.533162 4.150302 31.502622 -0.916087
2004-02-23 08:32:19 51°12.432 2°48.822 11.478798 4.150723 31.506193 -0.848668
2004-02-23 08:32:23 51°12.424 2°48.796 11.550341 4.150513 31.504407 -0.848668
2004-02-23 08:32:29 51°12.412 2°48.76 11.475634 4.150407 31.504078 -0.882377
2004-02-23 08:32:34 51°12.4 2°48.731 11.507682 4.150407 31.505206 -0.882377
2004-02-23 08:32:39 51°12.392 2°48.699 11.509836 4.150829 31.505958 -0.882377
2004-02-23 08:32:43 51°12.382 2°48.677 11.509836 4.150829 31.505958 -0.882377
2004-02-23 08:32:49 51°12.371 2°48.64 11.543103 4.149985 31.499943 -0.882377
2004-02-23 08:32:53 51°12.362 2°48.617 11.506306 4.150407 31.504078 -0.882377
2004-02-23 08:32:59 51°12.351 2°48.58 11.550479 4.150618 31.5053 -0.882377
2004-02-23 08:33:03 51°12.342 2°48.556 11.512357 4.150407 31.503514 -0.882377
2004-02-23 08:33:09 51°12.33 2°48.52 11.493654 4.150302 31.503749 -0.848668
2004-02-23 08:33:14 51°12.319 2°48.49 11.493654 4.150302 31.503749 -0.848668
2004-02-23 08:33:19 51°12.31 2°48.459 11.565685 4.150513 31.503843 -0.882377
2004-02-23 08:33:23 51°12.3 2°48.436 11.524685 4.149985 31.502199 -0.882377
2004-02-23 08:33:29 51°12.289 2°48.401 11.507498 4.150513 31.505535 -0.882377
2004-02-23 08:33:34 51°12.279 2°48.369 11.56225 4.14988 31.500178 -0.882377
2004-02-23 08:33:39 51°12.269 2°48.339 11.514098 4.150196 31.505676 -0.882377
2004-02-23 08:33:43 51°12.261 2°48.315 11.514098 4.150196 31.505676 -0.882377
2004-02-23 08:33:49 51°12.247 2°48.281 11.487327 4.150091 31.505911 -0.882377
2004-02-23 08:33:53 51°12.241 2°48.255 11.561517 4.150091 31.504783 -0.882377
2004-02-23 08:33:59 51°12.228 2°48.219 11.535407 4.150196 31.50624 -0.882377
2004-02-23 08:34:03 51°12.221 2°48.195 11.498926 4.150196 31.504548 -0.882377
2004-02-23 08:34:09 51°12.207 2°48.16 11.579971 4.149985 31.503326 -0.882377
2004-02-23 08:34:13 51°12.2 2°48.135 11.579971 4.149985 31.503326 -0.882377
2004-02-23 08:34:19 51°12.188 2°48.098 11.498376 4.14988 31.502997 -0.882377
2004-02-23 08:34:24 51°12.178 2°48.068 11.521752 4.150196 31.504548 -0.882377
2004-02-23 08:34:29 51°12.168 2°48.039 11.523768 4.150091 31.503655 -0.848668
2004-02-23 08:34:34 51°12.157 2°48.009 11.509423 4.149985 31.50389 -0.882377
2004-02-23 08:34:39 51°12.148 2°47.978 11.539438 4.149985 31.502199 -0.882377
2004-02-23 08:34:44 51°12.136 2°47.949 11.539438 4.149985 31.502199 -0.882377
2004-02-23 08:34:49 51°12.126 2°47.918 11.554235 4.149458 31.499426 -0.882377
2004-02-23 08:34:54 51°12.115 2°47.889 11.54544 4.150302 31.506569 -0.848668
2004-02-23 08:34:59 51°12.105 2°47.859 11.572325 4.149669 31.502339 -0.848668
2004-02-23 08:35:03 51°12.097 2°47.835 11.512219 4.14988 31.504689 -0.882377
2004-02-23 08:35:09 51°12.084 2°47.8 11.57933 4.149985 31.504454 -0.882377
2004-02-23 08:35:14 51°12.072 2°47.772 11.57933 4.149985 31.504454 -0.882377
2004-02-23 08:35:19 51°12.062 2°47.742 11.571958 4.14988 31.503561 -0.882377
2004-02-23 08:35:24 51°12.051 2°47.714 11.540538 4.150196 31.506804 -0.882377
2004-02-23 08:35:29 51°12.04 2°47.686 11.517856 4.149775 31.504924 -0.848668
2004-02-23 08:35:33 51°12.032 2°47.661 11.578094 4.150091 31.505911 -0.882377
2004-02-23 08:35:39 51°12.021 2°47.624 11.577178 4.149985 31.503326 -0.916087
2004-02-23 08:35:44 51°12.01 2°47.596 11.577178 4.149985 31.503326 -0.916087
2004-02-23 08:35:49 51°12 2°47.567 11.584321 4.149669 31.501776 -0.848668
2004-02-23 08:35:54 51°11.99 2°47.537 11.545119 4.149458 31.500554 -0.848668
2004-02-23 08:35:59 51°11.982 2°47.505 11.596956 4.150196 31.505112 -0.882377
2004-02-23 08:36:03 51°11.974 2°47.482 11.517215 4.149564 31.50201 -0.916087
2004-02-23 08:36:09 51°11.963 2°47.446 11.541821 4.14988 31.505253 -0.848668
2004-02-23 08:36:14 51°11.952 2°47.417 11.541821 4.14988 31.505253 -0.848668
2004-02-23 08:36:19 51°11.943 2°47.387 11.555242 4.14988 31.504689 -0.882377
2004-02-23 08:36:23 51°11.934 2°47.365 11.532062 4.149669 31.502903 -0.916087
2004-02-23 08:36:29 51°11.922 2°47.328 11.585694 4.149669 31.502903 -0.848668
2004-02-23 08:36:34 51°11.911 2°47.3 11.529129 4.149985 31.505018 -0.882377
2004-02-23 08:36:39 51°11.901 2°47.271 11.54434 4.149458 31.501118 -0.882377
2004-02-23 08:36:43 51°11.892 2°47.248 11.54434 4.149458 31.501118 -0.882377
2004-02-23 08:36:49 51°11.881 2°47.212 11.549242 4.149669 31.501776 -0.882377
2004-02-23 08:36:54 51°11.869 2°47.184 11.534032 4.149353 31.501916 -0.882377
2004-02-23 08:36:59 51°11.86 2°47.154 11.557624 4.14988 31.504125 -0.848668
2004-02-23 08:37:04 51°11.848 2°47.126 11.546814 4.149142 31.500131 -0.848668
2004-02-23 08:37:09 51°11.839 2°47.095 11.566005 4.14988 31.505817 -0.882377
2004-02-23 08:37:13 51°11.831 2°47.072 11.566005 4.14988 31.505817 -0.882377
2004-02-23 08:37:19 51°11.819 2°47.037 11.535819 4.149353 31.501916 -0.882377
2004-02-23 08:37:23 51°11.811 2°47.014 11.529679 4.149564 31.503702 -0.848668
2004-02-23 08:37:29 51°11.799 2°46.979 11.570401 4.149775 31.503796 -0.882377
2004-02-23 08:37:33 51°11.791 2°46.956 11.525143 4.149142 31.500131 -0.882377
2004-02-23 08:37:39 51°11.778 2°46.92 11.603135 4.149564 31.502574 -0.882377
2004-02-23 08:37:44 51°11.768 2°46.89 11.603135 4.149564 31.502574 -0.882377
2004-02-23 08:37:49 51°11.758 2°46.861 11.593752 4.149775 31.503232 -0.882377
2004-02-23 08:37:54 51°11.747 2°46.833 11.575438 4.149564 31.503138 -0.848668
2004-02-23 08:37:59 51°11.736 2°46.804 11.544478 4.149353 31.50248 -0.848668
2004-02-23 08:38:04 51°11.727 2°46.773 11.59453 4.149669 31.503467 -0.882377
2004-02-23 08:38:09 51°11.717 2°46.744 11.558586 4.149247 31.50046 -0.848668
2004-02-23 08:38:13 51°11.709 2°46.721 11.558586 4.149247 31.50046 -0.848668
2004-02-23 08:38:19 51°11.697 2°46.686 11.551074 4.149142 31.501258 -0.882377
2004-02-23 08:38:24 51°11.686 2°46.656 11.552952 4.149142 31.501822 -0.848668
2004-02-23 08:38:29 51°11.678 2°46.625 11.615904 4.14988 31.506381 -0.848668
2004-02-23 08:38:33 51°11.669 2°46.603 11.613524 4.149247 31.50328 -0.882377
2004-02-23 08:38:39 51°11.66 2°46.566 11.534582 4.149458 31.506758 -0.882377
2004-02-23 08:38:44 51°11.649 2°46.537 11.534582 4.149458 31.506758 -0.882377
2004-02-23 08:38:49 51°11.64 2°46.506 11.60881 4.149353 31.503608 -0.882377
2004-02-23 08:38:53 51°11.632 2°46.482 11.567654 4.148826 31.501964 -0.882377
2004-02-23 08:38:59 51°11.622 2°46.447 11.583588 4.149564 31.507087 -0.882377
2004-02-23 08:39:03 51°11.614 2°46.423 11.615675 4.149564 31.507087 -0.882377
2004-02-23 08:39:09 51°11.603 2°46.387 11.556021 4.149247 31.503844 -0.882377
2004-02-23 08:39:14 51°11.594 2°46.358 11.556021 4.149247 31.503844 -0.882377
2004-02-23 08:39:19 51°11.582 2°46.329 11.590593 4.149353 31.504173 -0.882377
2004-02-23 08:39:23 51°11.576 2°46.303 11.628212 4.148826 31.499144 -0.882377
2004-02-23 08:39:29 51°11.564 2°46.269 11.596361 4.149458 31.506194 -0.882377
2004-02-23 08:39:34 51°11.555 2°46.24 11.557899 4.149247 31.504972 -0.882377
2004-02-23 08:39:39 51°11.545 2°46.211 11.587343 4.148931 31.504549 -0.848668
2004-02-23 08:39:44 51°11.536 2°46.18 11.587343 4.148931 31.504549 -0.848668
2004-02-23 08:39:49 51°11.526 2°46.152 11.570539 4.149564 31.507651 -0.848668
2004-02-23 08:39:54 51°11.516 2°46.122 11.618878 4.149037 31.506006 -0.882377
2004-02-23 08:39:59 51°11.505 2°46.093 11.549517 4.149037 31.50657 -0.882377
2004-02-23 08:40:03 51°11.497 2°46.068 11.631278 4.149247 31.504972 -0.882377
2004-02-23 08:40:09 51°11.485 2°46.035 11.588029 4.14872 31.502199 -0.848668
2004-02-23 08:40:14 51°11.477 2°46.006 11.588029 4.14872 31.502199 -0.848668
2004-02-23 08:40:19 51°11.465 2°45.978 11.556845 4.149037 31.50657 -0.848668
2004-02-23 08:40:25 51°11.453 2°45.942 11.639009 4.149037 31.504878 -0.882377
2004-02-23 08:40:29 51°11.445 2°45.918 11.574568 4.148509 31.499848 -0.882377
2004-02-23 08:40:34 51°11.436 2°45.889 11.601442 4.149247 31.505536 -0.848668
2004-02-23 08:40:39 51°11.425 2°45.861 11.585694 4.148509 31.499848 -0.882377
2004-02-23 08:40:44 51°11.416 2°45.831 11.585694 4.148509 31.499848 -0.882377
2004-02-23 08:40:49 51°11.405 2°45.803 11.569394 4.149037 31.504314 -0.882377
2004-02-23 08:40:54 51°11.396 2°45.774 11.629585 4.149247 31.504408 -0.848668
2004-02-23 08:40:59 51°11.384 2°45.745 11.591005 4.148193 31.498297 -0.882377
2004-02-23 08:41:03 51°11.377 2°45.72 11.575667 4.149353 31.508121 -0.848668
2004-02-23 08:41:09 51°11.365 2°45.685 11.644635 4.14872 31.503327 -0.882377
2004-02-23 08:41:13 51°11.357 2°45.662 11.644635 4.14872 31.503327 -0.882377
2004-02-23 08:41:19 51°11.345 2°45.628 11.585328 4.148826 31.505348 -0.882377
2004-02-23 08:41:24 51°11.335 2°45.6 11.6154 4.148826 31.505348 -0.882377
2004-02-23 08:41:29 51°11.325 2°45.569 11.620114 4.148615 31.502434 -0.882377
2004-02-23 08:41:34 51°11.313 2°45.542 11.574065 4.148404 31.500648 -0.882377
2004-02-23 08:41:39 51°11.304 2°45.514 11.547226 4.148404 31.501212 -0.882377
2004-02-23 08:41:43 51°11.295 2°45.491 11.547226 4.148404 31.501212 -0.882377
2004-02-23 08:41:49 51°11.284 2°45.454 11.639741 4.149037 31.505442 -0.882377
2004-02-23 08:41:54 51°11.276 2°45.425 11.604874 4.148509 31.502105 -0.848668
2004-02-23 08:41:59 51°11.265 2°45.396 11.581345 4.148509 31.502669 -0.882377
2004-02-23 08:42:03 51°11.258 2°45.373 11.585923 4.148826 31.505913 -0.848668
2004-02-23 08:42:09 51°11.247 2°45.337 11.563899 4.148404 31.502904 -0.814958
2004-02-23 08:42:13 51°11.24 2°45.313 11.563899 4.148404 31.502904 -0.814958
2004-02-23 08:42:19 51°11.229 2°45.276 11.644086 4.149142 31.507464 -0.848668
2004-02-23 08:42:24 51°11.219 2°45.248 11.605561 4.148509 31.503233 -0.882377
2004-02-23 08:42:29 51°11.211 2°45.219 11.598878 4.14872 31.503891 -0.882377
2004-02-23 08:42:33 51°11.203 2°45.196 11.659134 4.148404 31.502904 -0.848668
2004-02-23 08:42:39 51°11.191 2°45.16 11.630866 4.148826 31.506477 -0.882377
2004-02-23 08:42:43 51°11.183 2°45.137 11.630866 4.148826 31.506477 -0.882377
2004-02-23 08:42:49 51°11.172 2°45.102 11.650993 4.148615 31.503562 -0.848668
2004-02-23 08:42:53 51°11.165 2°45.08 11.611144 4.148404 31.503468 -0.848668
2004-02-23 08:42:59 51°11.153 2°45.046 11.636218 4.148931 31.50737 -0.882377
2004-02-23 08:43:04 51°11.143 2°45.017 11.644086 4.147982 31.499331 -0.848668
2004-02-23 08:43:09 51°11.133 2°44.987 11.633382 4.148299 31.503139 -0.848668
2004-02-23 08:43:13 51°11.125 2°44.963 11.633382 4.148299 31.503139 -0.848668
2004-02-23 08:43:18 51°11.118 2°44.933 11.649758 4.14872 31.505019 -0.882377
2004-02-23 08:43:23 51°11.108 2°44.905 11.601991 4.147877 31.498438 -0.848668
2004-02-23 08:43:29 51°11.096 2°44.871 11.591005 4.148615 31.505819 -0.882377
2004-02-23 08:43:34 51°11.086 2°44.841 11.643263 4.148193 31.500554 -0.848668
2004-02-23 08:43:39 51°11.077 2°44.813 11.597551 4.148193 31.501682 -0.848668
2004-02-23 08:43:43 51°11.068 2°44.791 11.597551 4.148193 31.501682 -0.848668
2004-02-23 08:43:49 51°11.057 2°44.753 11.680898 4.148088 31.501917 -0.882377
2004-02-23 08:43:54 51°11.047 2°44.724 11.623134 4.148088 31.500789 -0.848668
2004-02-23 08:43:59 51°11.039 2°44.696 11.613661 4.148404 31.502904 -0.882377
2004-02-23 08:44:03 51°11.031 2°44.674 11.642897 4.147982 31.499331 -0.882377
2004-02-23 08:44:09 51°11.02 2°44.639 11.650993 4.148509 31.504361 -0.848668
2004-02-23 08:44:14 51°11.009 2°44.61 11.650993 4.148509 31.504361 -0.848668
2004-02-23 08:44:19 51°11 2°44.581 11.65799 4.148404 31.50234 -0.848668
2004-02-23 08:44:24 51°10.99 2°44.553 11.648386 4.148509 31.503233 -0.882377
2004-02-23 08:44:29 51°10.979 2°44.525 11.64587 4.148088 31.500225 -0.882377
2004-02-23 08:44:34 51°10.969 2°44.498 11.609268 4.148299 31.502575 -0.848668
2004-02-23 08:44:39 51°10.957 2°44.471 11.64587 4.148193 31.503374 -0.882377
2004-02-23 08:44:43 51°10.948 2°44.448 11.64587 4.148193 31.503374 -0.882377
2004-02-23 08:44:49 51°10.936 2°44.416 11.648569 4.148615 31.505819 -0.882377
2004-02-23 08:44:53 51°10.928 2°44.393 11.677881 4.147771 31.500366 -0.882377
2004-02-23 08:44:59 51°10.916 2°44.359 11.654332 4.148404 31.506854 -0.882377
2004-02-23 08:45:03 51°10.91 2°44.336 11.620983 4.148193 31.505067 -0.882377
2004-02-23 08:45:09 51°10.898 2°44.301 11.646328 4.147877 31.500695 -0.882377
2004-02-23 08:45:13 51°10.891 2°44.278 11.646328 4.147877 31.500695 -0.882377
2004-02-23 08:45:19 51°10.881 2°44.243 11.693652 4.148299 31.504268 -0.848668
2004-02-23 08:45:23 51°10.875 2°44.22 11.677332 4.147982 31.501588 -0.882377
2004-02-23 08:45:29 51°10.864 2°44.187 11.646831 4.147982 31.502716 -0.882377
2004-02-23 08:45:34 51°10.855 2°44.157 11.639146 4.148299 31.504832 -0.848668
2004-02-23 08:45:39 51°10.846 2°44.127 11.691366 4.148404 31.504597 -0.848668
2004-02-23 08:45:43 51°10.84 2°44.104 11.691366 4.148404 31.504597 -0.848668
2004-02-23 08:45:49 51°10.83 2°44.072 11.62048 4.147455 31.498814 -0.848668
2004-02-23 08:45:53 51°10.822 2°44.05 11.682635 4.148088 31.504738 -0.848668
2004-02-23 08:45:59 51°10.813 2°44.013 11.680212 4.148299 31.505961 -0.882377
2004-02-23 08:46:03 51°10.804 2°43.99 11.671663 4.147455 31.499379 -0.882377
2004-02-23 08:46:09 51°10.795 2°43.956 11.612792 4.147666 31.502294 -0.882377
2004-02-23 08:46:13 51°10.787 2°43.935 11.612792 4.147666 31.502294 -0.882377
2004-02-23 08:46:19 51°10.776 2°43.9 11.646877 4.147771 31.502623 -0.848668
2004-02-23 08:46:24 51°10.768 2°43.871 11.674909 4.147455 31.499943 -0.848668
2004-02-23 08:46:29 51°10.757 2°43.845 11.623728 4.147982 31.504974 -0.848668
2004-02-23 08:46:34 51°10.748 2°43.817 11.649438 4.147666 31.501165 -0.882377
2004-02-23 08:46:39 51°10.737 2°43.791 11.683687 4.147455 31.500507 -0.882377
2004-02-23 08:46:43 51°10.728 2°43.77 11.683687 4.147455 31.500507 -0.882377
2004-02-23 08:46:49 51°10.716 2°43.736 11.698314 4.147666 31.502294 -0.882377
2004-02-23 08:46:53 51°10.705 2°43.716 11.645459 4.147561 31.502529 -0.848668
2004-02-23 08:46:59 51°10.693 2°43.682 11.712709 4.147982 31.504409 -0.882377
2004-02-23 08:47:03 51°10.686 2°43.662 11.711841 4.147561 31.500836 -0.848668
2004-02-23 08:47:09 51°10.674 2°43.632 11.677332 4.147455 31.500507 -0.882377
2004-02-23 08:47:14 51°10.665 2°43.604 11.677332 4.147455 31.500507 -0.882377
2004-02-23 08:47:19 51°10.658 2°43.573 11.673675 4.14735 31.500742 -0.882377
2004-02-23 08:47:23 51°10.652 2°43.549 11.660551 4.147771 31.503187 -0.848668
2004-02-23 08:47:29 51°10.647 2°43.514 11.726781 4.14735 31.498485 -0.882377
2004-02-23 08:47:34 51°10.641 2°43.485 11.648615 4.14735 31.501306 -0.848668
2004-02-23 08:47:39 51°10.638 2°43.455 11.650947 4.147455 31.5022 -0.882377
2004-02-23 08:47:45 51°10.634 2°43.418 11.650947 4.147455 31.5022 -0.882377
2004-02-23 08:47:49 51°10.63 2°43.394 11.693377 4.147982 31.506102 -0.882377
2004-02-23 08:47:53 51°10.629 2°43.37 11.68451 4.147666 31.503422 -0.848668
2004-02-23 08:47:59 51°10.624 2°43.333 11.652823 4.146717 31.497075 -0.882377
2004-02-23 08:48:04 51°10.621 2°43.302 11.736009 4.147772 31.50488 -0.882377
2004-02-23 08:48:09 51°10.617 2°43.272 11.629219 4.147033 31.499191 -0.848668
2004-02-23 08:48:14 51°10.613 2°43.241 11.629219 4.147033 31.499191 -0.848668
2004-02-23 08:48:19 51°10.61 2°43.21 11.714125 4.147877 31.505209 -0.882377
2004-02-23 08:48:24 51°10.604 2°43.18 11.622767 4.147033 31.499755 -0.882377
2004-02-23 08:48:29 51°10.6 2°43.15 11.656984 4.147033 31.499191 -0.882377
2004-02-23 08:48:33 51°10.596 2°43.125 11.728928 4.147139 31.501213 -0.848668
2004-02-23 08:48:39 51°10.591 2°43.088 11.690406 4.14735 31.503 -0.882377
2004-02-23 08:48:43 51°10.586 2°43.065 11.690406 4.14735 31.503 -0.882377
2004-02-23 08:48:49 51°10.581 2°43.028 11.737196 4.147033 31.500319 -0.882377
2004-02-23 08:48:54 51°10.576 2°42.997 11.721664 4.147455 31.505022 -0.882377
2004-02-23 08:48:59 51°10.572 2°42.966 11.738475 4.14735 31.503564 -0.848668
2004-02-23 08:49:03 51°10.568 2°42.942 11.651862 4.147139 31.502341 -0.882377
2004-02-23 08:49:09 51°10.562 2°42.905 11.710516 4.146928 31.499426 -0.882377
2004-02-23 08:49:14 51°10.557 2°42.874 11.710516 4.146928 31.499426 -0.882377
2004-02-23 08:49:19 51°10.553 2°42.843 11.714856 4.147139 31.502341 -0.848668
2004-02-23 08:49:23 51°10.55 2°42.818 11.744961 4.147244 31.502106 -0.882377
2004-02-23 08:49:29 51°10.545 2°42.781 11.72171 4.14735 31.503 -0.882377
2004-02-23 08:49:34 51°10.541 2°42.75 11.663935 4.146717 31.498203 -0.848668
2004-02-23 08:49:39 51°10.535 2°42.718 11.73843 4.147244 31.503235 -0.882377
2004-02-23 08:49:43 51°10.533 2°42.692 11.73843 4.147244 31.503235 -0.882377
2004-02-23 08:49:49 51°10.529 2°42.655 11.66485 4.14619 31.494865 -0.848668
2004-02-23 08:49:54 51°10.524 2°42.624 11.664896 4.147033 31.503141 -0.848668
2004-02-23 08:49:59 51°10.521 2°42.592 11.752907 4.147244 31.503235 -0.882377
2004-02-23 08:50:04 51°10.515 2°42.561 11.683504 4.146506 31.499803 -0.848668
2004-02-23 08:50:09 51°10.511 2°42.529 11.67468 4.147033 31.503706 -0.882377
2004-02-23 08:50:14 51°10.505 2°42.498 11.67468 4.147033 31.503706 -0.882377
2004-02-23 08:50:19 51°10.5 2°42.467 11.747427 4.147139 31.504035 -0.882377
2004-02-23 08:50:24 51°10.495 2°42.436 11.7593 4.147139 31.504035 -0.848668
2004-02-23 08:50:29 51°10.49 2°42.405 11.718238 4.146612 31.500696 -0.882377
2004-02-23 08:50:34 51°10.486 2°42.373 11.686932 4.146612 31.501261 -0.916087
2004-02-23 08:50:39 51°10.483 2°42.341 11.73674 4.147244 31.504364 -0.882377
2004-02-23 08:50:44 51°10.479 2°42.31 11.73674 4.147244 31.504364 -0.882377
2004-02-23 08:50:49 51°10.477 2°42.278 11.746286 4.146612 31.501825 -0.882377
2004-02-23 08:50:53 51°10.476 2°42.252 11.720979 4.146612 31.501825 -0.882377
2004-02-23 08:50:59 51°10.474 2°42.213 11.689629 4.146506 31.500931 -0.848668
2004-02-23 08:51:04 51°10.471 2°42.182 11.661192 4.146823 31.503612 -0.882377
2004-02-23 08:51:09 51°10.469 2°42.149 11.774824 4.147139 31.506293 -0.882377
2004-02-23 08:51:14 51°10.467 2°42.117 11.774824 4.147139 31.506293 -0.882377
2004-02-23 08:51:19 51°10.464 2°42.085 11.693835 4.146717 31.503283 -0.882377
2004-02-23 08:51:24 51°10.461 2°42.052 11.734593 4.147139 31.505164 -0.882377
2004-02-23 08:51:29 51°10.458 2°42.019 11.723309 4.146401 31.500602 -0.848668
2004-02-23 08:51:33 51°10.456 2°41.993 11.75994 4.147139 31.506293 -0.848668
2004-02-23 08:51:39 51°10.452 2°41.954 11.769026 4.146823 31.503612 -0.882377
2004-02-23 08:51:44 51°10.449 2°41.922 11.769026 4.146823 31.503612 -0.882377
2004-02-23 08:51:49 51°10.446 2°41.889 11.687892 4.145979 31.498722 -0.882377
2004-02-23 08:51:54 51°10.443 2°41.856 11.749939 4.146928 31.50507 -0.882377
2004-02-23 08:51:59 51°10.441 2°41.823 11.782584 4.146717 31.503848 -0.848668
2004-02-23 08:52:04 51°10.438 2°41.791 11.669057 4.146295 31.501402 -0.882377
2004-02-23 08:52:09 51°10.434 2°41.758 11.76551 4.146612 31.504648 -0.882377
2004-02-23 08:52:13 51°10.433 2°41.731 11.76551 4.146612 31.504648 -0.882377
2004-02-23 08:52:19 51°10.43 2°41.692 11.756698 4.146717 31.505541 -0.882377
2004-02-23 08:52:24 51°10.426 2°41.659 11.765282 4.146823 31.506435 -0.848668
2004-02-23 08:52:29 51°10.423 2°41.626 11.706586 4.14619 31.501073 -0.882377
2004-02-23 08:52:33 51°10.421 2°41.599 11.720339 4.146612 31.504083 -0.848668
2004-02-23 08:52:39 51°10.417 2°41.56 11.72171 4.145874 31.498392 -0.848668
2004-02-23 08:52:43 51°10.416 2°41.534 11.72171 4.145874 31.498392 -0.848668
2004-02-23 08:52:49 51°10.412 2°41.494 11.704164 4.146401 31.50286 -0.848668
2004-02-23 08:52:54 51°10.409 2°41.46 11.744185 4.145874 31.500086 -0.848668
2004-02-23 08:52:59 51°10.407 2°41.427 11.783588 4.146612 31.505212 -0.882377
2004-02-23 08:53:03 51°10.403 2°41.401 11.684373 4.145874 31.50065 -0.882377
2004-02-23 08:53:09 51°10.4 2°41.362 11.774322 4.146401 31.505119 -0.882377
2004-02-23 08:53:14 51°10.397 2°41.329 11.774322 4.146401 31.505119 -0.882377
2004-02-23 08:53:19 51°10.394 2°41.295 11.768889 4.146717 31.50667 -0.882377
2004-02-23 08:53:24 51°10.391 2°41.263 11.751674 4.146295 31.503096 -0.848668
2004-02-23 08:53:29 51°10.387 2°41.23 11.707134 4.145241 31.49416 -0.848668
2004-02-23 08:53:34 51°10.384 2°41.197 11.743454 4.146296 31.504225 -0.882377
2004-02-23 08:53:39 51°10.381 2°41.164 11.746788 4.145979 31.499286 -0.848668
2004-02-23 08:53:44 51°10.377 2°41.131 11.746788 4.145979 31.499286 -0.848668
2004-02-23 08:53:49 51°10.374 2°41.098 11.785825 4.145979 31.499286 -0.848668
2004-02-23 08:53:53 51°10.372 2°41.071 11.790891 4.14619 31.502202 -0.882377
2004-02-23 08:53:59 51°10.368 2°41.031 11.802528 4.145557 31.496841 -0.848668
2004-02-23 08:54:03 51°10.366 2°41.006 11.752131 4.14619 31.503331 -0.848668
2004-02-23 08:54:09 51°10.361 2°40.966 11.762725 4.146296 31.504225 -0.848668
2004-02-23 08:54:14 51°10.359 2°40.933 11.762725 4.146296 31.504225 -0.848668
2004-02-23 08:54:19 51°10.355 2°40.899 11.779206 4.14619 31.504461 -0.882377
2004-02-23 08:54:24 51°10.353 2°40.866 11.776102 4.146506 31.504883 -0.882377
2004-02-23 08:54:29 51°10.35 2°40.833 11.728152 4.145663 31.499428 -0.882377
2004-02-23 08:54:33 51°10.348 2°40.806 11.760716 4.145663 31.500557 -0.882377
2004-02-23 08:54:39 51°10.344 2°40.766 11.758616 4.145768 31.500321 -0.848668
2004-02-23 08:54:43 51°10.342 2°40.739 11.758616 4.145768 31.500321 -0.848668
2004-02-23 08:54:49 51°10.338 2°40.699 11.732035 4.145557 31.499663 -0.848668
2004-02-23 08:54:54 51°10.335 2°40.666 11.756835 4.145874 31.502344 -0.882377
2004-02-23 08:54:59 51°10.33 2°40.632 11.761812 4.145874 31.503473 -0.882377
2004-02-23 08:55:04 51°10.327 2°40.599 11.744641 4.146085 31.505261 -0.848668
2004-02-23 08:55:09 51°10.324 2°40.566 11.769117 4.145347 31.496747 -0.882377
2004-02-23 08:55:13 51°10.321 2°40.54 11.769117 4.145347 31.496747 -0.882377
2004-02-23 08:55:19 51°10.317 2°40.499 11.808232 4.14619 31.50559 -0.848668
2004-02-23 08:55:23 51°10.315 2°40.473 11.764323 4.145452 31.501592 -0.848668
2004-02-23 08:55:29 51°10.311 2°40.432 11.762588 4.145347 31.501263 -0.882377
2004-02-23 08:55:33 51°10.309 2°40.406 11.813661 4.145558 31.502486 -0.848668
2004-02-23 08:55:39 51°10.305 2°40.366 11.7976 4.145979 31.505497 -0.848668
2004-02-23 08:55:43 51°10.303 2°40.34 11.7976 4.145979 31.505497 -0.848668
2004-02-23 08:55:49 51°10.299 2°40.3 11.806817 4.145663 31.50338 -0.848668
2004-02-23 08:55:54 51°10.295 2°40.266 11.762725 4.145452 31.502157 -0.848668
2004-02-23 08:55:59 51°10.293 2°40.233 11.78336 4.145874 31.504603 -0.882377
2004-02-23 08:56:05 51°10.289 2°40.193 11.77035 4.145452 31.502157 -0.882377
2004-02-23 08:56:09 51°10.287 2°40.167 11.761081 4.145768 31.505968 -0.882377
2004-02-23 08:56:14 51°10.284 2°40.134 11.761081 4.145768 31.505968 -0.882377
2004-02-23 08:56:19 51°10.28 2°40.1 11.806133 4.145663 31.504509 -0.882377
2004-02-23 08:56:24 51°10.278 2°40.066 11.839525 4.145768 31.505403 -0.882377
2004-02-23 08:56:29 51°10.274 2°40.033 11.818862 4.145663 31.505639 -0.882377
2004-02-23 08:56:33 51°10.272 2°40.007 11.726279 4.145347 31.502393 -0.882377
2004-02-23 08:56:39 51°10.267 2°39.967 11.820596 4.145558 31.50531 -0.882377
2004-02-23 08:56:43 51°10.266 2°39.94 11.820596 4.145558 31.50531 -0.882377
2004-02-23 08:56:49 51°10.261 2°39.9 11.765693 4.145768 31.506533 -0.882377
2004-02-23 08:56:54 51°10.258 2°39.866 11.801296 4.14503 31.500276 -0.848668
2004-02-23 08:56:59 51°10.255 2°39.832 11.835877 4.145768 31.507662 -0.848668
2004-02-23 08:57:03 51°10.254 2°39.806 11.747153 4.145347 31.504087 -0.882377
2004-02-23 08:57:09 51°10.25 2°39.766 11.84404 4.145663 31.506768 -0.882377
2004-02-23 08:57:13 51°10.246 2°39.74 11.84404 4.145663 31.506768 -0.882377
2004-02-23 08:57:19 51°10.242 2°39.699 11.834052 4.14503 31.5031 -0.848668
2004-02-23 08:57:24 51°10.24 2°39.665 11.815988 4.14503 31.50197 -0.848668
2004-02-23 08:57:29 51°10.237 2°39.632 11.78943 4.144925 31.500511 -0.848668
2004-02-23 08:57:34 51°10.233 2°39.599 11.817266 4.145558 31.506439 -0.882377
2004-02-23 08:57:39 51°10.23 2°39.566 11.78231 4.144925 31.499382 -0.848668
2004-02-23 08:57:43 51°10.226 2°39.539 11.78231 4.144925 31.499382 -0.848668
2004-02-23 08:57:49 51°10.223 2°39.499 11.799562 4.145136 31.502299 -0.882377
2004-02-23 08:57:54 51°10.219 2°39.466 11.821965 4.144925 31.501641 -0.882377
2004-02-23 08:57:59 51°10.216 2°39.433 11.846685 4.145452 31.506675 -0.848668
2004-02-23 08:58:03 51°10.213 2°39.407 11.816855 4.144925 31.501641 -0.848668
2004-02-23 08:58:09 51°10.209 2°39.367 11.813661 4.144714 31.500983 -0.848668
2004-02-23 08:58:14 51°10.206 2°39.334 11.813661 4.144714 31.500983 -0.848668
2004-02-23 08:58:19 51°10.202 2°39.301 11.851519 4.145452 31.506675 -0.848668
2004-02-23 08:58:24 51°10.198 2°39.267 11.840529 4.144925 31.504465 -0.882377
2004-02-23 08:58:29 51°10.196 2°39.234 11.852476 4.145136 31.504558 -0.882377
2004-02-23 08:58:33 51°10.193 2°39.207 11.85275 4.14482 31.503571 -0.848668
2004-02-23 08:58:39 51°10.189 2°39.168 11.791621 4.144925 31.5039 -0.882377
2004-02-23 08:58:43 51°10.185 2°39.141 11.791621 4.144925 31.5039 -0.882377
2004-02-23 08:58:49 51°10.182 2°39.101 11.867932 4.145136 31.505688 -0.882377
2004-02-23 08:58:53 51°10.179 2°39.075 11.779069 4.14503 31.504794 -0.848668
2004-02-23 08:58:59 51°10.174 2°39.036 11.808551 4.144503 31.49976 -0.882377
2004-02-23 08:59:04 51°10.17 2°39.003 11.782858 4.144609 31.501218 -0.848668
2004-02-23 08:59:09 51°10.168 2°38.97 11.82388 4.14482 31.502441 -0.882377
2004-02-23 08:59:14 51°10.163 2°38.938 11.82388 4.14482 31.502441 -0.882377
2004-02-23 08:59:19 51°10.16 2°38.905 11.879237 4.144925 31.502771 -0.848668
2004-02-23 08:59:23 51°10.157 2°38.879 11.842809 4.144714 31.502112 -0.848668
2004-02-23 08:59:29 51°10.154 2°38.839 11.817631 4.144609 31.500654 -0.882377
2004-02-23 08:59:34 51°10.149 2°38.807 11.7735 4.143976 31.49642 -0.882377
2004-02-23 08:59:39 51°10.147 2°38.774 11.755739 4.144714 31.503242 -0.848668
2004-02-23 08:59:44 51°10.143 2°38.741 11.755739 4.144714 31.503242 -0.848668
2004-02-23 08:59:49 51°10.141 2°38.708 11.856534 4.144714 31.502677 -0.882377
2004-02-23 08:59:53 51°10.138 2°38.682 11.836789 4.144714 31.503242 -0.848668
2004-02-23 08:59:59 51°10.134 2°38.643 11.780028 4.144398 31.50056 -0.882377
2004-02-23 09:00:03 51°10.131 2°38.617 11.874086 4.14503 31.506489 -0.882377
2004-02-23 09:00:09 51°10.127 2°38.578 11.839708 4.14482 31.506961 -0.848668
2004-02-23 09:00:13 51°10.125 2°38.552 11.839708 4.14482 31.506961 -0.848668
2004-02-23 09:00:19 51°10.121 2°38.513 11.823151 4.144609 31.503478 -0.882377
2004-02-23 09:00:24 51°10.118 2°38.48 11.843447 4.144714 31.504372 -0.848668
2004-02-23 09:00:29 51°10.115 2°38.448 11.828716 4.144187 31.499902 -0.882377
2004-02-23 09:00:34 51°10.111 2°38.415 11.811289 4.144187 31.499902 -0.848668
2004-02-23 09:00:39 51°10.108 2°38.383 11.805357 4.144081 31.499008 -0.848668
2004-02-23 09:00:44 51°10.103 2°38.351 11.805357 4.144081 31.499008 -0.848668
2004-02-23 09:00:49 51°10.102 2°38.318 11.886529 4.144609 31.503478 -0.882377
2004-02-23 09:00:54 51°10.097 2°38.286 11.776969 4.144292 31.50362 -0.848668
2004-02-23 09:00:59 51°10.094 2°38.253 11.843083 4.144609 31.505737 -0.848668
2004-02-23 09:01:04 51°10.09 2°38.22 11.852613 4.144398 31.503384 -0.882377
2004-02-23 09:01:09 51°10.089 2°38.187 11.843174 4.144503 31.503713 -0.882377
2004-02-23 09:01:13 51°10.084 2°38.162 11.843174 4.144503 31.503713 -0.882377
2004-02-23 09:01:19 51°10.082 2°38.123 11.880422 4.144082 31.501267 -0.916087
2004-02-23 09:01:24 51°10.078 2°38.09 11.818452 4.144398 31.503384 -0.848668
2004-02-23 09:01:29 51°10.075 2°38.056 11.847004 4.144082 31.502397 -0.882377
2004-02-23 09:01:34 51°10.074 2°38.024 11.784547 4.144398 31.502819 -0.882377
2004-02-23 09:01:39 51°10.069 2°37.992 11.900838 4.143976 31.499243 -0.848668
2004-02-23 09:01:44 51°10.066 2°37.959 11.900838 4.143976 31.499243 -0.848668
2004-02-23 09:01:49 51°10.062 2°37.926 11.826024 4.144082 31.501832 -0.882377
2004-02-23 09:01:54 51°10.059 2°37.893 11.871716 4.144609 31.505172 -0.848668
2004-02-23 09:01:59 51°10.056 2°37.86 11.835193 4.143976 31.500373 -0.882377
2004-02-23 09:02:04 51°10.051 2°37.828 11.798284 4.144082 31.504092 -0.882377
2004-02-23 09:02:09 51°10.047 2°37.795 11.903754 4.144082 31.502962 -0.848668
2004-02-23 09:02:14 51°10.044 2°37.761 11.903754 4.144082 31.502962 -0.848668
2004-02-23 09:02:19 51°10.04 2°37.729 11.775006 4.14366 31.50108 -0.848668
2004-02-23 09:02:24 51°10.036 2°37.696 11.877778 4.144082 31.504657 -0.882377
2004-02-23 09:02:29 51°10.032 2°37.663 11.827849 4.144082 31.504092 -0.848668
2004-02-23 09:02:34 51°10.027 2°37.632 11.869801 4.144082 31.502397 -0.848668
2004-02-23 09:02:39 51°10.023 2°37.599 11.875955 4.143976 31.502633 -0.848668
2004-02-23 09:02:44 51°10.02 2°37.566 11.875955 4.143976 31.502633 -0.848668
2004-02-23 09:02:49 51°10.015 2°37.534 11.832912 4.144082 31.501832 -0.882377
2004-02-23 09:02:54 51°10.011 2°37.501 11.895507 4.143554 31.499621 -0.882377
2004-02-23 09:02:59 51°10.007 2°37.469 11.811791 4.144082 31.504657 -0.814958
2004-02-23 09:03:03 51°10.002 2°37.442 11.907444 4.143554 31.500186 -0.882377
2004-02-23 09:03:09 51°10 2°37.403 11.813525 4.143449 31.500987 -0.848668
2004-02-23 09:03:13 51°9.995 2°37.377 11.813525 4.143449 31.500987 -0.848668
2004-02-23 09:03:19 51°9.992 2°37.338 11.903663 4.143554 31.501316 -0.882377
2004-02-23 09:03:23 51°9.987 2°37.312 11.777837 4.143765 31.504235 -0.882377
2004-02-23 09:03:29 51°9.983 2°37.272 11.899835 4.143976 31.503763 -0.848668
2004-02-23 09:03:34 51°9.979 2°37.239 11.822466 4.143554 31.500186 -0.882377
2004-02-23 09:03:39 51°9.975 2°37.206 11.855349 4.143343 31.496703 -0.848668
2004-02-23 09:03:44 51°9.972 2°37.174 11.855349 4.143343 31.496703 -0.848668
2004-02-23 09:03:49 51°9.966 2°37.141 11.812065 4.143449 31.499292 -0.848668
2004-02-23 09:03:53 51°9.964 2°37.114 11.914506 4.143449 31.497033 -0.848668
2004-02-23 09:03:59 51°9.958 2°37.075 11.894504 4.143871 31.502304 -0.848668
2004-02-23 09:04:04 51°9.955 2°37.043 11.842171 4.143554 31.499056 -0.882377
2004-02-23 09:04:09 51°9.95 2°37.011 11.906852 4.143554 31.500186 -0.848668
2004-02-23 09:04:13 51°9.948 2°36.984 11.906852 4.143554 31.500186 -0.848668
2004-02-23 09:04:19 51°9.942 2°36.944 11.843721 4.143554 31.502446 -0.848668
2004-02-23 09:04:24 51°9.938 2°36.911 11.820231 4.143133 31.499435 -0.882377
2004-02-23 09:04:29 51°9.934 2°36.879 11.862234 4.143344 31.500658 -0.848668
2004-02-23 09:04:34 51°9.931 2°36.846 11.895643 4.143554 31.502446 -0.848668
2004-02-23 09:04:39 51°9.924 2°36.813 11.897147 4.143133 31.5 -0.848668
2004-02-23 09:04:44 51°9.921 2°36.78 11.897147 4.143133 31.5 -0.848668
2004-02-23 09:04:49 51°9.917 2°36.747 11.822056 4.143133 31.5 -0.848668
2004-02-23 09:04:53 51°9.914 2°36.72 11.892545 4.142922 31.499341 -0.848668
2004-02-23 09:04:59 51°9.911 2°36.68 11.867522 4.143449 31.504377 -0.882377
2004-02-23 09:05:03 51°9.909 2°36.653 11.913868 4.143344 31.501223 -0.882377
2004-02-23 09:05:09 51°9.907 2°36.612 11.864012 4.143344 31.501788 -0.848668
2004-02-23 09:05:14 51°9.905 2°36.579 11.864012 4.143344 31.501788 -0.848668
2004-02-23 09:05:19 51°9.905 2°36.547 11.881333 4.143027 31.49967 -0.848668
2004-02-23 09:05:23 51°9.903 2°36.52 11.851747 4.143133 31.5 -0.916087
2004-02-23 09:05:29 51°9.903 2°36.479 11.88024 4.142395 31.49374 -0.882377
2004-02-23 09:05:34 51°9.903 2°36.446 11.913002 4.143238 31.500894 -0.848668
2004-02-23 09:05:39 51°9.904 2°36.414 11.92726 4.143449 31.503812 -0.882377
2004-02-23 09:05:44 51°9.906 2°36.381 11.92726 4.143449 31.503812 -0.882377
2004-02-23 09:05:49 51°9.91 2°36.348 11.887441 4.143027 31.5008 -0.848668
2004-02-23 09:05:54 51°9.913 2°36.316 11.880285 4.143027 31.501365 -0.882377
2004-02-23 09:05:59 51°9.918 2°36.284 11.938873 4.143344 31.504048 -0.882377
2004-02-23 09:06:04 51°9.923 2°36.253 11.920473 4.142816 31.499577 -0.882377
2004-02-23 09:06:09 51°9.929 2°36.222 11.879647 4.142711 31.498683 -0.882377
2004-02-23 09:06:13 51°9.933 2°36.197 11.879647 4.142711 31.498683 -0.882377
2004-02-23 09:06:19 51°9.943 2°36.162 11.93063 4.142605 31.497223 -0.848668
2004-02-23 09:06:23 51°9.949 2°36.138 11.914597 4.143344 31.504048 -0.848668
2004-02-23 09:06:29 51°9.959 2°36.104 11.889491 4.143027 31.501365 -0.882377
2004-02-23 09:06:34 51°9.968 2°36.076 11.876456 4.142184 31.494776 -0.882377
2004-02-23 09:06:39 51°9.977 2°36.048 11.936915 4.143238 31.504284 -0.882377
2004-02-23 09:06:43 51°9.985 2°36.027 11.936915 4.143238 31.504284 -0.882377
2004-02-23 09:06:49 51°9.998 2°35.996 11.86547 4.142184 31.496471 -0.848668
2004-02-23 09:06:54 51°10.01 2°35.971 11.949073 4.143238 31.504849 -0.882377
2004-02-23 09:06:59 51°10.022 2°35.947 11.862781 4.142711 31.500943 -0.882377
2004-02-23 09:07:05 51°10.037 2°35.921 11.946842 4.142816 31.501837 -0.848668
2004-02-23 09:07:09 51°10.049 2°35.905 11.867567 4.142289 31.499061 -0.882377
2004-02-23 09:07:13 51°10.06 2°35.89 11.867567 4.142289 31.499061 -0.882377
2004-02-23 09:07:19 51°10.079 2°35.872 11.948344 4.143027 31.504191 -0.848668
2004-02-23 09:07:23 51°10.09 2°35.859 11.850789 4.142078 31.498403 -0.848668
2004-02-23 09:07:29 51°10.109 2°35.846 11.957541 4.143555 31.508663 -0.882377
2004-02-23 09:07:34 51°10.125 2°35.836 11.934638 4.142816 31.502968 -0.882377
2004-02-23 09:07:39 51°10.141 2°35.829 11.879009 4.141867 31.496049 -0.882377
2004-02-23 09:07:43 51°10.155 2°35.823 11.879009 4.141867 31.496049 -0.882377
2004-02-23 09:07:49 51°10.174 2°35.817 11.955265 4.143027 31.504756 -0.882377
2004-02-23 09:07:54 51°10.191 2°35.814 11.94411 4.1425 31.500285 -0.882377
2004-02-23 09:07:59 51°10.208 2°35.812 11.909768 4.141973 31.496378 -0.848668
2004-02-23 09:08:03 51°10.221 2°35.813 11.945111 4.143133 31.505651 -0.848668
2004-02-23 09:08:09 51°10.24 2°35.813 11.939602 4.142395 31.499955 -0.848668
2004-02-23 09:08:14 51°10.257 2°35.814 11.939602 4.142395 31.499955 -0.848668
2004-02-23 09:08:19 51°10.273 2°35.816 11.925347 4.142395 31.501651 -0.848668
2004-02-23 09:08:25 51°10.293 2°35.819 11.905759 4.142289 31.500757 -0.882377
2004-02-23 09:08:29 51°10.306 2°35.822 11.916783 4.142395 31.501086 -0.848668
2004-02-23 09:08:33 51°10.319 2°35.826 11.938463 4.142711 31.504334 -0.848668
2004-02-23 09:08:39 51°10.34 2°35.829 11.901658 4.142184 31.499862 -0.882377
2004-02-23 09:08:43 51°10.353 2°35.833 11.901658 4.142184 31.499862 -0.882377
2004-02-23 09:08:49 51°10.373 2°35.838 11.910314 4.141868 31.498874 -0.882377
2004-02-23 09:08:53 51°10.386 2°35.841 11.908082 4.141868 31.498309 -0.882377
2004-02-23 09:08:59 51°10.405 2°35.846 11.946068 4.1425 31.503111 -0.882377
2004-02-23 09:09:03 51°10.419 2°35.849 11.958588 4.142395 31.503347 -0.882377
2004-02-23 09:09:09 51°10.439 2°35.854 11.915827 4.141868 31.500005 -0.882377
2004-02-23 09:09:14 51°10.456 2°35.857 11.915827 4.141868 31.500005 -0.882377
2004-02-23 09:09:19 51°10.473 2°35.86 11.932725 4.142395 31.502216 -0.848668
2004-02-23 09:09:25 51°10.493 2°35.865 11.962276 4.142606 31.505136 -0.848668
2004-02-23 09:09:29 51°10.506 2°35.867 11.913002 4.141446 31.497557 -0.882377
2004-02-23 09:09:33 51°10.519 2°35.871 11.914733 4.141973 31.501465 -0.848668
2004-02-23 09:09:39 51°10.539 2°35.873 11.930084 4.142184 31.502688 -0.882377
2004-02-23 09:09:44 51°10.556 2°35.876 11.930084 4.142184 31.502688 -0.882377
2004-02-23 09:09:49 51°10.572 2°35.879 11.943381 4.141762 31.499676 -0.848668
2004-02-23 09:09:53 51°10.585 2°35.882 11.982393 4.142922 31.508384 -0.848668
2004-02-23 09:09:59 51°10.605 2°35.883 11.90585 4.140813 31.495017 -0.848668
2004-02-23 09:10:03 51°10.618 2°35.886 11.903435 4.141657 31.501042 -0.882377
2004-02-23 09:10:09 51°10.638 2°35.889 11.962776 4.1425 31.507068 -0.848668
2004-02-23 09:10:14 51°10.653 2°35.891 11.962776 4.1425 31.507068 -0.848668
2004-02-23 09:10:19 51°10.669 2°35.894 11.993132 4.142922 31.509515 -0.848668
2004-02-23 09:10:23 51°10.682 2°35.894 11.913595 4.140708 31.492992 -0.848668
2004-02-23 09:10:29 51°10.701 2°35.897 11.922933 4.141551 31.497322 -0.848668
2004-02-23 09:10:34 51°10.716 2°35.898 11.928262 4.140919 31.49026 -0.848668
2004-02-23 09:10:39 51°10.732 2°35.9 11.968876 4.142184 31.500427 -0.882377
2004-02-23 09:10:44 51°10.748 2°35.902 11.968876 4.142184 31.500427 -0.882377
2004-02-23 09:10:49 51°10.764 2°35.905 12.002687 4.1425 31.502545 -0.882377
2004-02-23 09:10:53 51°10.777 2°35.907 11.92225 4.14134 31.494967 -0.848668
2004-02-23 09:10:59 51°10.797 2°35.911 11.951987 4.14134 31.493837 -0.882377
2004-02-23 09:11:04 51°10.813 2°35.916 11.952488 4.141551 31.497887 -0.882377
2004-02-23 09:11:09 51°10.829 2°35.922 11.985169 4.142184 31.503254 -0.848668
2004-02-23 09:11:13 51°10.842 2°35.926 11.985169 4.142184 31.503254 -0.848668
2004-02-23 09:11:19 51°10.861 2°35.934 11.94033 4.141657 31.499346 -0.882377
2004-02-23 09:11:23 51°10.873 2°35.94 11.944246 4.14134 31.498359 -0.882377
2004-02-23 09:11:29 51°10.892 2°35.951 11.99063 4.141657 31.500477 -0.882377
2004-02-23 09:11:34 51°10.907 2°35.96 11.962276 4.141446 31.498688 -0.848668
2004-02-23 09:11:39 51°10.922 2°35.97 11.980027 4.141657 31.501042 -0.882377
2004-02-23 09:11:44 51°10.936 2°35.982 11.980027 4.141657 31.501042 -0.882377
2004-02-23 09:11:49 51°10.951 2°35.993 11.91077 4.141235 31.498595 -0.848668
2004-02-23 09:11:54 51°10.965 2°36.005 11.933773 4.140391 31.494264 -0.882377
2004-02-23 09:11:59 51°10.979 2°36.015 11.949983 4.141657 31.503304 -0.882377
2004-02-23 09:12:03 51°10.991 2°36.023 12.002732 4.142184 31.507211 -0.882377
2004-02-23 09:12:09 51°11.008 2°36.036 11.950894 4.141024 31.497936 -0.916087
2004-02-23 09:12:14 51°11.022 2°36.047 11.950894 4.141024 31.497936 -0.916087
2004-02-23 09:12:19 51°11.037 2°36.058 11.95053 4.141235 31.501421 -0.848668
2004-02-23 09:12:23 51°11.049 2°36.067 11.999684 4.141657 31.503869 -0.882377
2004-02-23 09:12:29 51°11.066 2°36.079 12.020836 4.141973 31.504857 -0.882377
2004-02-23 09:12:34 51°11.081 2°36.09 11.965462 4.140813 31.498408 -0.848668
2004-02-23 09:12:39 51°11.095 2°36.101 11.928398 4.140602 31.496619 -0.882377
2004-02-23 09:12:43 51°11.107 2°36.11 11.928398 4.140602 31.496619 -0.882377
2004-02-23 09:12:49 51°11.123 2°36.125 11.999821 4.141551 31.50354 -0.848668
2004-02-23 09:12:53 51°11.135 2°36.135 12.017516 4.141657 31.503304 -0.848668
2004-02-23 09:12:59 51°11.151 2°36.151 11.989128 4.141446 31.503211 -0.882377
2004-02-23 09:13:04 51°11.164 2°36.166 11.956813 4.141235 31.501421 -0.848668
2004-02-23 09:13:09 51°11.177 2°36.179 11.985033 4.140708 31.49921 -0.882377
2004-02-23 09:13:14 51°11.19 2°36.195 11.985033 4.140708 31.49921 -0.882377
2004-02-23 09:13:19 51°11.204 2°36.208 11.975157 4.141868 31.508486 -0.848668
2004-02-23 09:13:24 51°11.217 2°36.223 11.968512 4.140919 31.500434 -0.882377
2004-02-23 09:13:29 51°11.23 2°36.238 11.999184 4.140919 31.501565 -0.882377
2004-02-23 09:13:34 51°11.243 2°36.251 12.017334 4.14134 31.504578 -0.848668
2004-02-23 09:13:39 51°11.257 2°36.266 12.018289 4.141657 31.506131 -0.882377
2004-02-23 09:13:43 51°11.268 2°36.276 12.018289 4.141657 31.506131 -0.882377
2004-02-23 09:13:50 51°11.286 2°36.297 11.955174 4.140181 31.494171 -0.848668
2004-02-23 09:13:54 51°11.297 2°36.308 12.004961 4.141551 31.505236 -0.882377
2004-02-23 09:14:00 51°11.313 2°36.326 11.971561 4.14134 31.503447 -0.882377
2004-02-23 09:14:04 51°11.323 2°36.337 12.000139 4.140919 31.501565 -0.848668
2004-02-23 09:14:10 51°11.339 2°36.355 12.000639 4.141235 31.504814 -0.848668
2004-02-23 09:14:14 51°11.349 2°36.366 12.000639 4.141235 31.504814 -0.848668
2004-02-23 09:14:18 51°11.361 2°36.377 12.019836 4.141341 31.505709 -0.882377
2004-02-23 09:14:24 51°11.376 2°36.394 11.999775 4.141024 31.50359 -0.882377
2004-02-23 09:14:30 51°11.392 2°36.411 12.003824 4.140919 31.503261 -0.848668
2004-02-23 09:14:34 51°11.403 2°36.422 11.94502 4.140708 31.501472 -0.882377
2004-02-23 09:14:40 51°11.42 2°36.439 12.027067 4.141024 31.505287 -0.848668
2004-02-23 09:14:44 51°11.43 2°36.451 12.027067 4.141024 31.505287 -0.848668
2004-02-23 09:14:50 51°11.445 2°36.471 11.988537 4.140497 31.500248 -0.848668
2004-02-23 09:14:54 51°11.454 2°36.486 12.001504 4.140708 31.502037 -0.882377
2004-02-23 09:15:00 51°11.468 2°36.507 12.01315 4.140602 31.500577 -0.848668
2004-02-23 09:15:04 51°11.476 2°36.523 12.006417 4.140708 31.501472 -0.848668
2004-02-23 09:15:10 51°11.49 2°36.546 12.019518 4.140813 31.503498 -0.916087
2004-02-23 09:15:14 51°11.498 2°36.56 12.019518 4.140813 31.503498 -0.916087
2004-02-23 09:15:19 51°11.507 2°36.581 12.042391 4.140708 31.504299 -0.848668
2004-02-23 09:15:24 51°11.517 2°36.601 11.955583 4.139759 31.497943 -0.882377
2004-02-23 09:15:28 51°11.524 2°36.618 12.056121 4.141024 31.505853 -0.882377
2004-02-23 09:15:34 51°11.536 2°36.642 12.002368 4.140181 31.500956 -0.882377
2004-02-23 09:15:40 51°11.547 2°36.667 12.006645 4.140708 31.504865 -0.882377
2004-02-23 09:15:44 51°11.555 2°36.683 12.006645 4.140708 31.504865 -0.882377
2004-02-23 09:15:48 51°11.562 2°36.7 12.032706 4.140602 31.502839 -0.882377
2004-02-23 09:15:54 51°11.573 2°36.724 11.985852 4.140075 31.501193 -0.882377
2004-02-23 09:16:00 51°11.582 2°36.75 12.015106 4.141024 31.50755 -0.882377
2004-02-23 09:16:04 51°11.589 2°36.767 12.051439 4.140497 31.503641 -0.882377
2004-02-23 09:16:10 51°11.6 2°36.791 11.997182 4.140392 31.502181 -0.916087
2004-02-23 09:16:14 51°11.607 2°36.807 11.997182 4.140392 31.502181 -0.916087
2004-02-23 09:16:19 51°11.617 2°36.828 12.01456 4.139759 31.497943 -0.882377
2004-02-23 09:16:24 51°11.626 2°36.848 11.995635 4.140286 31.501286 -0.882377
2004-02-23 09:16:30 51°11.636 2°36.873 11.959726 4.139337 31.496625 -0.882377
2004-02-23 09:16:34 51°11.644 2°36.887 12.056939 4.141235 31.511037 -0.882377
2004-02-23 09:16:38 51°11.651 2°36.903 11.981665 4.139864 31.499403 -0.882377
2004-02-23 09:16:44 51°11.662 2°36.926 11.981665 4.139864 31.499403 -0.882377
2004-02-23 09:16:50 51°11.673 2°36.951 12.0423 4.140181 31.501522 -0.848668
2004-02-23 09:16:54 51°11.68 2°36.968 12.010693 4.139337 31.494929 -0.848668
2004-02-23 09:17:00 51°11.692 2°36.992 12.043255 4.140075 31.501758 -0.848668
2004-02-23 09:17:04 51°11.7 2°37.008 11.988127 4.140075 31.500627 -0.882377
2004-02-23 09:17:08 51°11.707 2°37.026 11.936141 4.139759 31.501336 -0.882377
2004-02-23 09:17:14 51°11.719 2°37.049 11.936141 4.139759 31.501336 -0.882377
2004-02-23 09:17:20 51°11.73 2°37.074 12.059939 4.139864 31.501666 -0.848668
2004-02-23 09:17:24 51°11.737 2°37.09 11.976841 4.139337 31.497757 -0.848668
2004-02-23 09:17:30 51°11.747 2°37.115 12.05403 4.140181 31.50435 -0.882377
2004-02-23 09:17:34 51°11.754 2°37.131 12.074302 4.140603 31.506233 -0.882377
2004-02-23 09:17:40 51°11.765 2°37.155 12.010056 4.139337 31.497191 -0.882377
2004-02-23 09:17:44 51°11.773 2°37.172 12.010056 4.139337 31.497191 -0.882377
2004-02-23 09:17:50 51°11.784 2°37.196 12.038117 4.140075 31.501758 -0.848668
2004-02-23 09:17:54 51°11.792 2°37.212 12.070393 4.140497 31.505338 -0.848668
2004-02-23 09:18:00 51°11.802 2°37.238 12.037208 4.140075 31.502324 -0.848668
2004-02-23 09:18:04 51°11.808 2°37.256 12.043073 4.139337 31.497191 -0.882377
2004-02-23 09:18:10 51°11.818 2°37.282 12.061757 4.140392 31.506706 -0.848668
2004-02-23 09:18:14 51°11.824 2°37.298 12.061757 4.140392 31.506706 -0.848668
2004-02-23 09:18:19 51°11.832 2°37.32 12.070984 4.139126 31.497663 -0.882377
2004-02-23 09:18:24 51°11.841 2°37.34 12.020018 4.139548 31.501243 -0.882377
2004-02-23 09:18:30 51°11.85 2°37.367 12.057485 4.139864 31.502797 -0.848668
2004-02-23 09:18:34 51°11.858 2°37.382 12.04521 4.139443 31.500914 -0.882377
2004-02-23 09:18:39 51°11.866 2°37.405 12.083435 4.140075 31.505153 -0.848668
2004-02-23 09:18:44 51°11.875 2°37.425 12.083435 4.140075 31.505153 -0.848668
2004-02-23 09:18:49 51°11.883 2°37.448 12.089524 4.139864 31.502797 -0.882377
2004-02-23 09:18:54 51°11.892 2°37.468 12.029432 4.139548 31.501809 -0.848668
2004-02-23 09:18:58 51°11.898 2°37.486 12.081709 4.139232 31.500821 -0.882377
2004-02-23 09:19:04 51°11.91 2°37.511 12.090296 4.140497 31.512694 -0.848668
2004-02-23 09:19:10 51°11.919 2°37.536 12.074074 4.139337 31.502282 -0.848668
2004-02-23 09:19:14 51°11.926 2°37.553 12.074074 4.139337 31.502282 -0.848668
2004-02-23 09:19:19 51°11.936 2°37.574 12.056121 4.139759 31.505297 -0.882377
2004-02-23 09:19:24 51°11.943 2°37.596 12.065666 4.139232 31.500821 -0.848668
2004-02-23 09:19:30 51°11.954 2°37.623 12.03116 4.138916 31.499268 -0.882377
2004-02-23 09:19:34 51°11.961 2°37.64 12.059439 4.139759 31.504165 -0.882377
2004-02-23 09:19:40 51°11.971 2°37.665 12.029432 4.139232 31.49969 -0.882377
2004-02-23 09:19:44 51°11.978 2°37.682 12.029432 4.139232 31.49969 -0.882377
2004-02-23 09:19:50 51°11.989 2°37.708 12.07212 4.139865 31.506192 -0.882377
2004-02-23 09:19:54 51°11.995 2°37.727 12.058894 4.138916 31.499268 -0.882377
2004-02-23 09:20:00 51°12.006 2°37.751 12.027113 4.139021 31.501294 -0.848668
2004-02-23 09:20:04 51°12.012 2°37.77 12.06053 4.13997 31.507087 -0.848668
2004-02-23 09:20:10 51°12.024 2°37.795 12.092386 4.139021 31.50186 -0.882377
2004-02-23 09:20:14 51°12.031 2°37.812 12.092386 4.139021 31.50186 -0.882377
2004-02-23 09:20:20 51°12.041 2°37.837 12.021337 4.139232 31.501953 -0.848668
2004-02-23 09:20:24 51°12.047 2°37.854 12.05453 4.138705 31.500872 -0.882377
2004-02-23 09:20:30 51°12.057 2°37.88 12.078346 4.139021 31.501294 -0.916087
2004-02-23 09:20:34 51°12.064 2°37.898 12.060394 4.13881 31.499504 -0.882377
2004-02-23 09:20:40 51°12.075 2°37.922 12.030432 4.138283 31.494463 -0.882377
2004-02-23 09:20:44 51°12.081 2°37.94 12.030432 4.138283 31.494463 -0.882377
2004-02-23 09:20:49 51°12.09 2°37.96 12.054303 4.139548 31.504638 -0.848668
2004-02-23 09:20:54 51°12.098 2°37.983 12.098656 4.138388 31.495924 -0.882377
2004-02-23 09:21:00 51°12.11 2°38.008 12.03407 4.138916 31.503228 -0.848668
2004-02-23 09:21:04 51°12.116 2°38.026 12.078301 4.139021 31.502992 -0.882377
2004-02-23 09:21:10 51°12.126 2°38.052 12.028477 4.139021 31.505821 -0.882377
2004-02-23 09:21:14 51°12.133 2°38.07 12.028477 4.139021 31.505821 -0.882377
2004-02-23 09:21:19 51°12.141 2°38.092 12.048893 4.138705 31.503136 -0.882377
2004-02-23 09:21:24 51°12.151 2°38.114 12.055757 4.13881 31.504031 -0.882377
2004-02-23 09:21:30 51°12.16 2°38.141 12.079437 4.139337 31.507941 -0.848668
2004-02-23 09:21:34 51°12.167 2°38.159 12.06603 4.138072 31.49833 -0.882377
2004-02-23 09:21:40 51°12.176 2°38.186 12.072302 4.139021 31.504124 -0.848668
2004-02-23 09:21:44 51°12.181 2°38.205 12.072302 4.139021 31.504124 -0.848668
2004-02-23 09:21:50 51°12.192 2°38.231 12.012194 4.13881 31.505163 -0.848668
2004-02-23 09:21:54 51°12.198 2°38.25 12.071938 4.139021 31.504689 -0.882377
2004-02-23 09:22:00 51°12.208 2°38.277 12.063985 4.138705 31.50257 -0.916087
2004-02-23 09:22:04 51°12.215 2°38.295 12.070666 4.138705 31.503702 -0.882377
2004-02-23 09:22:10 51°12.226 2°38.321 12.113327 4.138494 31.500779 -0.814958
2004-02-23 09:22:14 51°12.231 2°38.34 12.113327 4.138494 31.500779 -0.814958
2004-02-23 09:22:19 51°12.24 2°38.362 12.012012 4.137967 31.499699 -0.882377
2004-02-23 09:22:24 51°12.248 2°38.385 12.094385 4.138599 31.502806 -0.848668
2004-02-23 09:22:30 51°12.258 2°38.411 12.078982 4.138705 31.504268 -0.882377
2004-02-23 09:22:34 51°12.265 2°38.429 12.113055 4.138705 31.503702 -0.882377
2004-02-23 09:22:39 51°12.274 2°38.45 12.095021 4.138283 31.499555 -0.882377
2004-02-23 09:22:44 51°12.283 2°38.472 12.095021 4.138283 31.499555 -0.882377
2004-02-23 09:22:50 51°12.293 2°38.499 12.107604 4.138599 31.501675 -0.882377
2004-02-23 09:22:54 51°12.299 2°38.517 12.03257 4.13765 31.495881 -0.848668
2004-02-23 09:22:58 51°12.307 2°38.535 12.0813 4.138178 31.500357 -0.882377
2004-02-23 09:23:04 51°12.317 2°38.562 12.077028 4.138599 31.504504 -0.848668
2004-02-23 09:23:10 51°12.326 2°38.59 12.095294 4.138072 31.498896 -0.882377
2004-02-23 09:23:14 51°12.334 2°38.607 12.095294 4.138072 31.498896 -0.882377
2004-02-23 09:23:20 51°12.344 2°38.634 12.117233 4.138178 31.500923 -0.848668
2004-02-23 09:23:24 51°12.352 2°38.651 12.072438 4.138072 31.502292 -0.882377
2004-02-23 09:23:30 51°12.361 2°38.679 12.11846 4.137967 31.500265 -0.848668
2004-02-23 09:23:34 51°12.369 2°38.697 12.09493 4.138072 31.502292 -0.882377
2004-02-23 09:23:40 51°12.378 2°38.723 12.030296 4.137967 31.501397 -0.882377
2004-02-23 09:23:44 51°12.386 2°38.74 12.030296 4.137967 31.501397 -0.882377
2004-02-23 09:23:50 51°12.395 2°38.766 12.098201 4.13744 31.498618 -0.848668
2004-02-23 09:23:54 51°12.402 2°38.783 12.120458 4.139021 31.509784 -0.882377
2004-02-23 09:23:59 51°12.41 2°38.806 12.071438 4.137545 31.497249 -0.882377
2004-02-23 09:24:04 51°12.418 2°38.827 12.110375 4.137967 31.500265 -0.882377
2004-02-23 09:24:10 51°12.428 2°38.855 12.093704 4.137756 31.49904 -0.882377
2004-02-23 09:24:14 51°12.435 2°38.871 12.093704 4.137756 31.49904 -0.882377
2004-02-23 09:24:20 51°12.446 2°38.898 12.081754 4.137756 31.498474 -0.848668